<?xml version="1.0" encoding="UTF-8"?>
<gpx
version="1.1"
creator="Kashmir3D 9.420 - http://www.kashmir3d.com"
xmlns:xsi="http://www.w3.org/2001/XMLSchema-instance"
xmlns="http://www.topografix.com/GPX/1/1"
xmlns:kashmir3d="http://www.kashmir3d.com/namespace/kashmir3d"
xsi:schemaLocation="http://www.topografix.com/GPX/1/1 http://www.topografix.com/GPX/1/1/gpx.xsd
	http://www.kashmir3d.com/namespace/kashmir3d http://www.kashmir3d.com/namespace/kashmir3d.xsd">
<trk>
 <name>江代山GOGOトレイル</name>
 <number>1</number>
 <extensions>
 <kashmir3d:line_color>0000ff</kashmir3d:line_color>
 <kashmir3d:line_size>2</kashmir3d:line_size>
 <kashmir3d:line_style>1</kashmir3d:line_style>
 <kashmir3d:icon>901001</kashmir3d:icon>
 </extensions>
<trkseg>
<trkpt lat="32.347228" lon="131.088923">
 <ele>942.521000</ele>
 <time>2026-05-04T01:58:58Z</time>
</trkpt>
<trkpt lat="32.347546" lon="131.089101">
 <ele>944.348000</ele>
 <time>2026-05-04T01:59:08Z</time>
</trkpt>
<trkpt lat="32.347686" lon="131.089276">
 <ele>945.976000</ele>
 <time>2026-05-04T01:59:18Z</time>
</trkpt>
<trkpt lat="32.347724" lon="131.089467">
 <ele>948.378000</ele>
 <time>2026-05-04T01:59:28Z</time>
</trkpt>
<trkpt lat="32.347736" lon="131.089674">
 <ele>949.236000</ele>
 <time>2026-05-04T01:59:38Z</time>
</trkpt>
<trkpt lat="32.347736" lon="131.089960">
 <ele>949.023000</ele>
 <time>2026-05-04T01:59:48Z</time>
</trkpt>
<trkpt lat="32.347736" lon="131.090198">
 <ele>948.139000</ele>
 <time>2026-05-04T01:59:58Z</time>
</trkpt>
<trkpt lat="32.347736" lon="131.090373">
 <ele>947.029000</ele>
 <time>2026-05-04T02:00:08Z</time>
</trkpt>
<trkpt lat="32.347762" lon="131.090580">
 <ele>946.410000</ele>
 <time>2026-05-04T02:00:18Z</time>
</trkpt>
<trkpt lat="32.347864" lon="131.090691">
 <ele>945.659000</ele>
 <time>2026-05-04T02:00:28Z</time>
</trkpt>
<trkpt lat="32.348042" lon="131.090786">
 <ele>943.451000</ele>
 <time>2026-05-04T02:00:38Z</time>
</trkpt>
<trkpt lat="32.348054" lon="131.091009">
 <ele>940.743000</ele>
 <time>2026-05-04T02:00:48Z</time>
</trkpt>
<trkpt lat="32.348016" lon="131.091136">
 <ele>938.756000</ele>
 <time>2026-05-04T02:00:58Z</time>
</trkpt>
<trkpt lat="32.348016" lon="131.091311">
 <ele>937.980000</ele>
 <time>2026-05-04T02:01:08Z</time>
</trkpt>
<trkpt lat="32.348080" lon="131.091374">
 <ele>937.967000</ele>
 <time>2026-05-04T02:01:18Z</time>
</trkpt>
<trkpt lat="32.348245" lon="131.091454">
 <ele>937.969000</ele>
 <time>2026-05-04T02:01:28Z</time>
</trkpt>
<trkpt lat="32.348372" lon="131.091549">
 <ele>934.806000</ele>
 <time>2026-05-04T02:01:38Z</time>
</trkpt>
<trkpt lat="32.348461" lon="131.091549">
 <ele>934.283000</ele>
 <time>2026-05-04T02:01:48Z</time>
</trkpt>
<trkpt lat="32.348588" lon="131.091613">
 <ele>935.558000</ele>
 <time>2026-05-04T02:01:58Z</time>
</trkpt>
<trkpt lat="32.348639" lon="131.091819">
 <ele>937.382000</ele>
 <time>2026-05-04T02:02:08Z</time>
</trkpt>
<trkpt lat="32.348639" lon="131.091915">
 <ele>934.516000</ele>
 <time>2026-05-04T02:02:18Z</time>
</trkpt>
<trkpt lat="32.348614" lon="131.092074">
 <ele>934.354000</ele>
 <time>2026-05-04T02:02:28Z</time>
</trkpt>
<trkpt lat="32.348525" lon="131.092280">
 <ele>933.066000</ele>
 <time>2026-05-04T02:02:38Z</time>
</trkpt>
<trkpt lat="32.348461" lon="131.092503">
 <ele>931.363000</ele>
 <time>2026-05-04T02:02:48Z</time>
</trkpt>
<trkpt lat="32.348487" lon="131.092709">
 <ele>930.657000</ele>
 <time>2026-05-04T02:02:58Z</time>
</trkpt>
<trkpt lat="32.348576" lon="131.092884">
 <ele>930.147000</ele>
 <time>2026-05-04T02:03:08Z</time>
</trkpt>
<trkpt lat="32.348627" lon="131.092996">
 <ele>929.347000</ele>
 <time>2026-05-04T02:03:18Z</time>
</trkpt>
<trkpt lat="32.348728" lon="131.093123">
 <ele>928.097000</ele>
 <time>2026-05-04T02:03:28Z</time>
</trkpt>
<trkpt lat="32.348868" lon="131.093250">
 <ele>926.469000</ele>
 <time>2026-05-04T02:03:38Z</time>
</trkpt>
<trkpt lat="32.349008" lon="131.093266">
 <ele>926.227000</ele>
 <time>2026-05-04T02:03:48Z</time>
</trkpt>
<trkpt lat="32.349186" lon="131.093393">
 <ele>925.026000</ele>
 <time>2026-05-04T02:03:58Z</time>
</trkpt>
<trkpt lat="32.349326" lon="131.093345">
 <ele>924.988000</ele>
 <time>2026-05-04T02:04:08Z</time>
</trkpt>
<trkpt lat="32.349478" lon="131.093218">
 <ele>925.221000</ele>
 <time>2026-05-04T02:04:18Z</time>
</trkpt>
<trkpt lat="32.349555" lon="131.093107">
 <ele>925.709000</ele>
 <time>2026-05-04T02:04:28Z</time>
</trkpt>
<trkpt lat="32.349631" lon="131.092900">
 <ele>927.043000</ele>
 <time>2026-05-04T02:04:38Z</time>
</trkpt>
<trkpt lat="32.349644" lon="131.092741">
 <ele>928.824000</ele>
 <time>2026-05-04T02:04:48Z</time>
</trkpt>
<trkpt lat="32.349644" lon="131.092439">
 <ele>933.268000</ele>
 <time>2026-05-04T02:04:58Z</time>
</trkpt>
<trkpt lat="32.349567" lon="131.092312">
 <ele>934.452000</ele>
 <time>2026-05-04T02:05:08Z</time>
</trkpt>
<trkpt lat="32.349504" lon="131.091994">
 <ele>939.818000</ele>
 <time>2026-05-04T02:05:18Z</time>
</trkpt>
<trkpt lat="32.349466" lon="131.091899">
 <ele>940.119000</ele>
 <time>2026-05-04T02:05:28Z</time>
</trkpt>
<trkpt lat="32.349402" lon="131.091692">
 <ele>942.108000</ele>
 <time>2026-05-04T02:05:38Z</time>
</trkpt>
<trkpt lat="32.349389" lon="131.091486">
 <ele>945.281000</ele>
 <time>2026-05-04T02:05:48Z</time>
</trkpt>
<trkpt lat="32.349377" lon="131.091231">
 <ele>948.234000</ele>
 <time>2026-05-04T02:05:58Z</time>
</trkpt>
<trkpt lat="32.349313" lon="131.091136">
 <ele>948.252000</ele>
 <time>2026-05-04T02:06:08Z</time>
</trkpt>
<trkpt lat="32.349300" lon="131.090993">
 <ele>950.200000</ele>
 <time>2026-05-04T02:06:18Z</time>
</trkpt>
<trkpt lat="32.349262" lon="131.090802">
 <ele>951.763000</ele>
 <time>2026-05-04T02:06:28Z</time>
</trkpt>
<trkpt lat="32.349186" lon="131.090738">
 <ele>952.222000</ele>
 <time>2026-05-04T02:06:38Z</time>
</trkpt>
<trkpt lat="32.349097" lon="131.090723">
 <ele>952.081000</ele>
 <time>2026-05-04T02:06:48Z</time>
</trkpt>
<trkpt lat="32.348932" lon="131.090754">
 <ele>952.843000</ele>
 <time>2026-05-04T02:06:58Z</time>
</trkpt>
<trkpt lat="32.348817" lon="131.090834">
 <ele>953.239000</ele>
 <time>2026-05-04T02:07:08Z</time>
</trkpt>
<trkpt lat="32.348703" lon="131.090850">
 <ele>954.008000</ele>
 <time>2026-05-04T02:07:18Z</time>
</trkpt>
<trkpt lat="32.348550" lon="131.090850">
 <ele>954.406000</ele>
 <time>2026-05-04T02:07:28Z</time>
</trkpt>
<trkpt lat="32.348436" lon="131.090850">
 <ele>953.889000</ele>
 <time>2026-05-04T02:07:38Z</time>
</trkpt>
<trkpt lat="32.348423" lon="131.090643">
 <ele>956.341000</ele>
 <time>2026-05-04T02:07:48Z</time>
</trkpt>
<trkpt lat="32.348359" lon="131.090532">
 <ele>955.144000</ele>
 <time>2026-05-04T02:07:58Z</time>
</trkpt>
<trkpt lat="32.348321" lon="131.090405">
 <ele>956.018000</ele>
 <time>2026-05-04T02:08:08Z</time>
</trkpt>
<trkpt lat="32.348283" lon="131.090293">
 <ele>956.444000</ele>
 <time>2026-05-04T02:08:18Z</time>
</trkpt>
<trkpt lat="32.348181" lon="131.090134">
 <ele>954.496000</ele>
 <time>2026-05-04T02:08:28Z</time>
</trkpt>
<trkpt lat="32.348156" lon="131.090039">
 <ele>954.630000</ele>
 <time>2026-05-04T02:08:38Z</time>
</trkpt>
<trkpt lat="32.348118" lon="131.089848">
 <ele>954.762000</ele>
 <time>2026-05-04T02:08:48Z</time>
</trkpt>
<trkpt lat="32.348092" lon="131.089737">
 <ele>954.886000</ele>
 <time>2026-05-04T02:08:58Z</time>
</trkpt>
<trkpt lat="32.348054" lon="131.089546">
 <ele>953.915000</ele>
 <time>2026-05-04T02:09:08Z</time>
</trkpt>
<trkpt lat="32.348067" lon="131.089340">
 <ele>953.887000</ele>
 <time>2026-05-04T02:09:18Z</time>
</trkpt>
<trkpt lat="32.348131" lon="131.089197">
 <ele>954.408000</ele>
 <time>2026-05-04T02:09:28Z</time>
</trkpt>
<trkpt lat="32.348207" lon="131.089054">
 <ele>954.887000</ele>
 <time>2026-05-04T02:09:38Z</time>
</trkpt>
<trkpt lat="32.348245" lon="131.088974">
 <ele>955.225000</ele>
 <time>2026-05-04T02:09:48Z</time>
</trkpt>
<trkpt lat="32.348347" lon="131.088895">
 <ele>956.635000</ele>
 <time>2026-05-04T02:09:58Z</time>
</trkpt>
<trkpt lat="32.348410" lon="131.088895">
 <ele>957.564000</ele>
 <time>2026-05-04T02:10:08Z</time>
</trkpt>
<trkpt lat="32.348512" lon="131.088895">
 <ele>958.382000</ele>
 <time>2026-05-04T02:10:18Z</time>
</trkpt>
<trkpt lat="32.348614" lon="131.088974">
 <ele>959.542000</ele>
 <time>2026-05-04T02:10:28Z</time>
</trkpt>
<trkpt lat="32.348665" lon="131.089165">
 <ele>960.469000</ele>
 <time>2026-05-04T02:10:38Z</time>
</trkpt>
<trkpt lat="32.348690" lon="131.089387">
 <ele>961.505000</ele>
 <time>2026-05-04T02:10:48Z</time>
</trkpt>
<trkpt lat="32.348728" lon="131.089642">
 <ele>962.461000</ele>
 <time>2026-05-04T02:10:58Z</time>
</trkpt>
<trkpt lat="32.348792" lon="131.089817">
 <ele>963.879000</ele>
 <time>2026-05-04T02:11:08Z</time>
</trkpt>
<trkpt lat="32.348830" lon="131.089912">
 <ele>964.554000</ele>
 <time>2026-05-04T02:11:18Z</time>
</trkpt>
<trkpt lat="32.348932" lon="131.089976">
 <ele>965.580000</ele>
 <time>2026-05-04T02:11:28Z</time>
</trkpt>
<trkpt lat="32.349008" lon="131.089976">
 <ele>966.059000</ele>
 <time>2026-05-04T02:11:38Z</time>
</trkpt>
<trkpt lat="32.349122" lon="131.089976">
 <ele>967.108000</ele>
 <time>2026-05-04T02:11:48Z</time>
</trkpt>
<trkpt lat="32.349211" lon="131.089928">
 <ele>968.112000</ele>
 <time>2026-05-04T02:11:58Z</time>
</trkpt>
<trkpt lat="32.349262" lon="131.089801">
 <ele>969.444000</ele>
 <time>2026-05-04T02:12:08Z</time>
</trkpt>
<trkpt lat="32.349313" lon="131.089642">
 <ele>970.969000</ele>
 <time>2026-05-04T02:12:18Z</time>
</trkpt>
<trkpt lat="32.349326" lon="131.089435">
 <ele>972.809000</ele>
 <time>2026-05-04T02:12:28Z</time>
</trkpt>
<trkpt lat="32.349313" lon="131.089292">
 <ele>974.261000</ele>
 <time>2026-05-04T02:12:38Z</time>
</trkpt>
<trkpt lat="32.349224" lon="131.089117">
 <ele>975.687000</ele>
 <time>2026-05-04T02:12:48Z</time>
</trkpt>
<trkpt lat="32.349173" lon="131.089006">
 <ele>976.100000</ele>
 <time>2026-05-04T02:12:58Z</time>
</trkpt>
<trkpt lat="32.349148" lon="131.088799">
 <ele>976.348000</ele>
 <time>2026-05-04T02:13:08Z</time>
</trkpt>
<trkpt lat="32.349135" lon="131.088609">
 <ele>972.751000</ele>
 <time>2026-05-04T02:13:18Z</time>
</trkpt>
<trkpt lat="32.349256" lon="131.088391">
 <ele>972.932000</ele>
 <time>2026-05-04T02:13:28Z</time>
</trkpt>
<trkpt lat="32.349256" lon="131.088149">
 <ele>971.987000</ele>
 <time>2026-05-04T02:13:38Z</time>
</trkpt>
<trkpt lat="32.349192" lon="131.088082">
 <ele>969.714000</ele>
 <time>2026-05-04T02:13:48Z</time>
</trkpt>
<trkpt lat="32.349117" lon="131.087961">
 <ele>968.340000</ele>
 <time>2026-05-04T02:13:58Z</time>
</trkpt>
<trkpt lat="32.349031" lon="131.087854">
 <ele>966.384000</ele>
 <time>2026-05-04T02:14:08Z</time>
</trkpt>
<trkpt lat="32.348966" lon="131.087814">
 <ele>965.847000</ele>
 <time>2026-05-04T02:14:18Z</time>
</trkpt>
<trkpt lat="32.348859" lon="131.087774">
 <ele>964.397000</ele>
 <time>2026-05-04T02:14:28Z</time>
</trkpt>
<trkpt lat="32.348784" lon="131.087747">
 <ele>964.128000</ele>
 <time>2026-05-04T02:14:38Z</time>
</trkpt>
<trkpt lat="32.348709" lon="131.087747">
 <ele>963.010000</ele>
 <time>2026-05-04T02:14:48Z</time>
</trkpt>
<trkpt lat="32.348569" lon="131.087733">
 <ele>962.314000</ele>
 <time>2026-05-04T02:14:58Z</time>
</trkpt>
<trkpt lat="32.348494" lon="131.087747">
 <ele>961.232000</ele>
 <time>2026-05-04T02:15:08Z</time>
</trkpt>
<trkpt lat="32.348376" lon="131.087854">
 <ele>959.063000</ele>
 <time>2026-05-04T02:15:18Z</time>
</trkpt>
<trkpt lat="32.348301" lon="131.087881">
 <ele>958.220000</ele>
 <time>2026-05-04T02:15:28Z</time>
</trkpt>
<trkpt lat="32.348205" lon="131.087908">
 <ele>957.788000</ele>
 <time>2026-05-04T02:15:38Z</time>
</trkpt>
<trkpt lat="32.348183" lon="131.087693">
 <ele>962.080000</ele>
 <time>2026-05-04T02:15:48Z</time>
</trkpt>
<trkpt lat="32.348280" lon="131.087573">
 <ele>961.266000</ele>
 <time>2026-05-04T02:15:58Z</time>
</trkpt>
<trkpt lat="32.348355" lon="131.087505">
 <ele>961.251000</ele>
 <time>2026-05-04T02:16:08Z</time>
</trkpt>
<trkpt lat="32.348419" lon="131.087452">
 <ele>964.990000</ele>
 <time>2026-05-04T02:16:18Z</time>
</trkpt>
<trkpt lat="32.348451" lon="131.087304">
 <ele>965.381000</ele>
 <time>2026-05-04T02:16:28Z</time>
</trkpt>
<trkpt lat="32.348462" lon="131.087237">
 <ele>967.595000</ele>
 <time>2026-05-04T02:16:38Z</time>
</trkpt>
<trkpt lat="32.348484" lon="131.087117">
 <ele>972.512000</ele>
 <time>2026-05-04T02:16:48Z</time>
</trkpt>
<trkpt lat="32.348516" lon="131.086996">
 <ele>977.076000</ele>
 <time>2026-05-04T02:16:58Z</time>
</trkpt>
<trkpt lat="32.348559" lon="131.086956">
 <ele>978.836000</ele>
 <time>2026-05-04T02:17:08Z</time>
</trkpt>
<trkpt lat="32.348666" lon="131.087023">
 <ele>979.829000</ele>
 <time>2026-05-04T02:17:18Z</time>
</trkpt>
<trkpt lat="32.348752" lon="131.087090">
 <ele>980.242000</ele>
 <time>2026-05-04T02:17:28Z</time>
</trkpt>
<trkpt lat="32.348827" lon="131.087130">
 <ele>981.093000</ele>
 <time>2026-05-04T02:17:38Z</time>
</trkpt>
<trkpt lat="32.348945" lon="131.087157">
 <ele>982.575000</ele>
 <time>2026-05-04T02:17:48Z</time>
</trkpt>
<trkpt lat="32.349020" lon="131.087197">
 <ele>982.600000</ele>
 <time>2026-05-04T02:17:58Z</time>
</trkpt>
<trkpt lat="32.349127" lon="131.087237">
 <ele>984.114000</ele>
 <time>2026-05-04T02:18:08Z</time>
</trkpt>
<trkpt lat="32.349245" lon="131.087251">
 <ele>985.039000</ele>
 <time>2026-05-04T02:18:18Z</time>
</trkpt>
<trkpt lat="32.349363" lon="131.087277">
 <ele>986.128000</ele>
 <time>2026-05-04T02:18:28Z</time>
</trkpt>
<trkpt lat="32.349471" lon="131.087264">
 <ele>987.275000</ele>
 <time>2026-05-04T02:18:38Z</time>
</trkpt>
<trkpt lat="32.349546" lon="131.087210">
 <ele>988.337000</ele>
 <time>2026-05-04T02:18:48Z</time>
</trkpt>
<trkpt lat="32.349674" lon="131.087090">
 <ele>988.714000</ele>
 <time>2026-05-04T02:18:58Z</time>
</trkpt>
<trkpt lat="32.349760" lon="131.086996">
 <ele>989.247000</ele>
 <time>2026-05-04T02:19:08Z</time>
</trkpt>
<trkpt lat="32.349835" lon="131.086942">
 <ele>990.338000</ele>
 <time>2026-05-04T02:19:18Z</time>
</trkpt>
<trkpt lat="32.349943" lon="131.086915">
 <ele>991.470000</ele>
 <time>2026-05-04T02:19:28Z</time>
</trkpt>
<trkpt lat="32.349996" lon="131.086915">
 <ele>992.087000</ele>
 <time>2026-05-04T02:19:38Z</time>
</trkpt>
<trkpt lat="32.350125" lon="131.086929">
 <ele>993.228000</ele>
 <time>2026-05-04T02:19:48Z</time>
</trkpt>
<trkpt lat="32.350265" lon="131.086956">
 <ele>994.818000</ele>
 <time>2026-05-04T02:19:58Z</time>
</trkpt>
<trkpt lat="32.350275" lon="131.086982">
 <ele>995.158000</ele>
 <time>2026-05-04T02:20:08Z</time>
</trkpt>
<trkpt lat="32.350297" lon="131.087143">
 <ele>995.502000</ele>
 <time>2026-05-04T02:20:18Z</time>
</trkpt>
<trkpt lat="32.350329" lon="131.087264">
 <ele>996.636000</ele>
 <time>2026-05-04T02:20:28Z</time>
</trkpt>
<trkpt lat="32.350329" lon="131.087371">
 <ele>997.379000</ele>
 <time>2026-05-04T02:20:38Z</time>
</trkpt>
<trkpt lat="32.350275" lon="131.087559">
 <ele>998.736000</ele>
 <time>2026-05-04T02:20:48Z</time>
</trkpt>
<trkpt lat="32.350254" lon="131.087801">
 <ele>1000.739000</ele>
 <time>2026-05-04T02:20:58Z</time>
</trkpt>
<trkpt lat="32.350286" lon="131.087908">
 <ele>1001.815000</ele>
 <time>2026-05-04T02:21:08Z</time>
</trkpt>
<trkpt lat="32.350372" lon="131.087894">
 <ele>1002.958000</ele>
 <time>2026-05-04T02:21:18Z</time>
</trkpt>
<trkpt lat="32.350468" lon="131.087787">
 <ele>1004.392000</ele>
 <time>2026-05-04T02:21:28Z</time>
</trkpt>
<trkpt lat="32.350554" lon="131.087599">
 <ele>1005.692000</ele>
 <time>2026-05-04T02:21:38Z</time>
</trkpt>
<trkpt lat="32.350608" lon="131.087452">
 <ele>1007.088000</ele>
 <time>2026-05-04T02:21:48Z</time>
</trkpt>
<trkpt lat="32.350726" lon="131.087251">
 <ele>1007.886000</ele>
 <time>2026-05-04T02:21:58Z</time>
</trkpt>
<trkpt lat="32.350790" lon="131.087076">
 <ele>1009.957000</ele>
 <time>2026-05-04T02:22:08Z</time>
</trkpt>
<trkpt lat="32.350865" lon="131.086942">
 <ele>1010.882000</ele>
 <time>2026-05-04T02:22:18Z</time>
</trkpt>
<trkpt lat="32.350940" lon="131.086808">
 <ele>1011.221000</ele>
 <time>2026-05-04T02:22:28Z</time>
</trkpt>
<trkpt lat="32.351005" lon="131.086701">
 <ele>1011.855000</ele>
 <time>2026-05-04T02:22:38Z</time>
</trkpt>
<trkpt lat="32.351080" lon="131.086580">
 <ele>1013.140000</ele>
 <time>2026-05-04T02:22:48Z</time>
</trkpt>
<trkpt lat="32.351166" lon="131.086473">
 <ele>1013.722000</ele>
 <time>2026-05-04T02:22:58Z</time>
</trkpt>
<trkpt lat="32.351209" lon="131.086392">
 <ele>1013.947000</ele>
 <time>2026-05-04T02:23:08Z</time>
</trkpt>
<trkpt lat="32.351284" lon="131.086285">
 <ele>1013.607000</ele>
 <time>2026-05-04T02:23:18Z</time>
</trkpt>
<trkpt lat="32.351359" lon="131.086205">
 <ele>1012.949000</ele>
 <time>2026-05-04T02:23:28Z</time>
</trkpt>
<trkpt lat="32.351455" lon="131.086097">
 <ele>1015.042000</ele>
 <time>2026-05-04T02:23:38Z</time>
</trkpt>
<trkpt lat="32.351552" lon="131.085977">
 <ele>1018.479000</ele>
 <time>2026-05-04T02:23:48Z</time>
</trkpt>
<trkpt lat="32.351638" lon="131.085829">
 <ele>1019.715000</ele>
 <time>2026-05-04T02:23:58Z</time>
</trkpt>
<trkpt lat="32.351724" lon="131.085668">
 <ele>1022.366000</ele>
 <time>2026-05-04T02:24:08Z</time>
</trkpt>
<trkpt lat="32.351788" lon="131.085534">
 <ele>1025.874000</ele>
 <time>2026-05-04T02:24:18Z</time>
</trkpt>
<trkpt lat="32.351885" lon="131.085333">
 <ele>1031.222000</ele>
 <time>2026-05-04T02:24:28Z</time>
</trkpt>
<trkpt lat="32.351970" lon="131.085252">
 <ele>1031.567000</ele>
 <time>2026-05-04T02:24:38Z</time>
</trkpt>
<trkpt lat="32.352078" lon="131.085051">
 <ele>1037.046000</ele>
 <time>2026-05-04T02:24:48Z</time>
</trkpt>
<trkpt lat="32.352142" lon="131.084957">
 <ele>1038.977000</ele>
 <time>2026-05-04T02:24:58Z</time>
</trkpt>
<trkpt lat="32.352217" lon="131.084850">
 <ele>1041.287000</ele>
 <time>2026-05-04T02:25:08Z</time>
</trkpt>
<trkpt lat="32.352282" lon="131.084783">
 <ele>1043.427000</ele>
 <time>2026-05-04T02:25:18Z</time>
</trkpt>
<trkpt lat="32.352400" lon="131.084595">
 <ele>1047.388000</ele>
 <time>2026-05-04T02:25:28Z</time>
</trkpt>
<trkpt lat="32.352496" lon="131.084421">
 <ele>1050.454000</ele>
 <time>2026-05-04T02:25:38Z</time>
</trkpt>
<trkpt lat="32.352582" lon="131.084233">
 <ele>1053.633000</ele>
 <time>2026-05-04T02:25:48Z</time>
</trkpt>
<trkpt lat="32.352657" lon="131.084032">
 <ele>1057.158000</ele>
 <time>2026-05-04T02:25:58Z</time>
</trkpt>
<trkpt lat="32.352711" lon="131.083884">
 <ele>1059.730000</ele>
 <time>2026-05-04T02:26:08Z</time>
</trkpt>
<trkpt lat="32.352754" lon="131.083791">
 <ele>1061.738000</ele>
 <time>2026-05-04T02:26:18Z</time>
</trkpt>
<trkpt lat="32.352893" lon="131.083522">
 <ele>1070.180000</ele>
 <time>2026-05-04T02:26:28Z</time>
</trkpt>
<trkpt lat="32.353097" lon="131.083308">
 <ele>1072.751000</ele>
 <time>2026-05-04T02:26:38Z</time>
</trkpt>
<trkpt lat="32.353183" lon="131.083214">
 <ele>1075.626000</ele>
 <time>2026-05-04T02:26:48Z</time>
</trkpt>
<trkpt lat="32.353344" lon="131.082986">
 <ele>1081.302000</ele>
 <time>2026-05-04T02:26:58Z</time>
</trkpt>
<trkpt lat="32.353397" lon="131.082865">
 <ele>1083.621000</ele>
 <time>2026-05-04T02:27:08Z</time>
</trkpt>
<trkpt lat="32.353580" lon="131.082624">
 <ele>1091.110000</ele>
 <time>2026-05-04T02:27:18Z</time>
</trkpt>
<trkpt lat="32.353708" lon="131.082503">
 <ele>1093.542000</ele>
 <time>2026-05-04T02:27:28Z</time>
</trkpt>
<trkpt lat="32.353794" lon="131.082436">
 <ele>1095.960000</ele>
 <time>2026-05-04T02:27:38Z</time>
</trkpt>
<trkpt lat="32.353902" lon="131.082235">
 <ele>1099.124000</ele>
 <time>2026-05-04T02:27:48Z</time>
</trkpt>
<trkpt lat="32.354030" lon="131.082087">
 <ele>1103.517000</ele>
 <time>2026-05-04T02:27:58Z</time>
</trkpt>
<trkpt lat="32.354159" lon="131.081900">
 <ele>1107.899000</ele>
 <time>2026-05-04T02:28:08Z</time>
</trkpt>
<trkpt lat="32.354234" lon="131.081712">
 <ele>1111.357000</ele>
 <time>2026-05-04T02:28:18Z</time>
</trkpt>
<trkpt lat="32.354299" lon="131.081645">
 <ele>1113.380000</ele>
 <time>2026-05-04T02:28:28Z</time>
</trkpt>
<trkpt lat="32.354384" lon="131.081484">
 <ele>1118.718000</ele>
 <time>2026-05-04T02:28:38Z</time>
</trkpt>
<trkpt lat="32.354427" lon="131.081296">
 <ele>1122.702000</ele>
 <time>2026-05-04T02:28:48Z</time>
</trkpt>
<trkpt lat="32.354406" lon="131.081162">
 <ele>1126.699000</ele>
 <time>2026-05-04T02:28:58Z</time>
</trkpt>
<trkpt lat="32.354406" lon="131.080974">
 <ele>1129.485000</ele>
 <time>2026-05-04T02:29:08Z</time>
</trkpt>
<trkpt lat="32.354406" lon="131.080867">
 <ele>1130.503000</ele>
 <time>2026-05-04T02:29:18Z</time>
</trkpt>
<trkpt lat="32.354417" lon="131.080666">
 <ele>1133.697000</ele>
 <time>2026-05-04T02:29:28Z</time>
</trkpt>
<trkpt lat="32.354417" lon="131.080585">
 <ele>1135.414000</ele>
 <time>2026-05-04T02:29:38Z</time>
</trkpt>
<trkpt lat="32.354427" lon="131.080465">
 <ele>1139.014000</ele>
 <time>2026-05-04T02:29:48Z</time>
</trkpt>
<trkpt lat="32.354438" lon="131.080250">
 <ele>1143.230000</ele>
 <time>2026-05-04T02:29:58Z</time>
</trkpt>
<trkpt lat="32.354459" lon="131.080036">
 <ele>1145.497000</ele>
 <time>2026-05-04T02:30:08Z</time>
</trkpt>
<trkpt lat="32.354481" lon="131.079767">
 <ele>1149.858000</ele>
 <time>2026-05-04T02:30:18Z</time>
</trkpt>
<trkpt lat="32.354513" lon="131.079620">
 <ele>1154.287000</ele>
 <time>2026-05-04T02:30:28Z</time>
</trkpt>
<trkpt lat="32.354567" lon="131.079472">
 <ele>1158.135000</ele>
 <time>2026-05-04T02:30:38Z</time>
</trkpt>
<trkpt lat="32.354599" lon="131.079392">
 <ele>1159.061000</ele>
 <time>2026-05-04T02:30:48Z</time>
</trkpt>
<trkpt lat="32.354653" lon="131.079258">
 <ele>1161.540000</ele>
 <time>2026-05-04T02:30:58Z</time>
</trkpt>
<trkpt lat="32.354706" lon="131.079124">
 <ele>1164.201000</ele>
 <time>2026-05-04T02:31:08Z</time>
</trkpt>
<trkpt lat="32.354760" lon="131.078869">
 <ele>1167.450000</ele>
 <time>2026-05-04T02:31:18Z</time>
</trkpt>
<trkpt lat="32.354781" lon="131.078788">
 <ele>1169.330000</ele>
 <time>2026-05-04T02:31:28Z</time>
</trkpt>
<trkpt lat="32.354867" lon="131.078694">
 <ele>1171.785000</ele>
 <time>2026-05-04T02:31:38Z</time>
</trkpt>
<trkpt lat="32.354974" lon="131.078547">
 <ele>1176.341000</ele>
 <time>2026-05-04T02:31:48Z</time>
</trkpt>
<trkpt lat="32.355007" lon="131.078359">
 <ele>1181.178000</ele>
 <time>2026-05-04T02:31:58Z</time>
</trkpt>
<trkpt lat="32.355039" lon="131.078185">
 <ele>1184.998000</ele>
 <time>2026-05-04T02:32:08Z</time>
</trkpt>
<trkpt lat="32.355114" lon="131.078104">
 <ele>1188.791000</ele>
 <time>2026-05-04T02:32:18Z</time>
</trkpt>
<trkpt lat="32.355221" lon="131.078104">
 <ele>1191.474000</ele>
 <time>2026-05-04T02:32:28Z</time>
</trkpt>
<trkpt lat="32.355361" lon="131.078118">
 <ele>1193.770000</ele>
 <time>2026-05-04T02:32:38Z</time>
</trkpt>
<trkpt lat="32.355436" lon="131.078104">
 <ele>1194.450000</ele>
 <time>2026-05-04T02:32:48Z</time>
</trkpt>
<trkpt lat="32.355500" lon="131.078091">
 <ele>1195.443000</ele>
 <time>2026-05-04T02:32:58Z</time>
</trkpt>
<trkpt lat="32.355672" lon="131.078064">
 <ele>1200.572000</ele>
 <time>2026-05-04T02:33:08Z</time>
</trkpt>
<trkpt lat="32.355768" lon="131.078064">
 <ele>1203.560000</ele>
 <time>2026-05-04T02:33:18Z</time>
</trkpt>
<trkpt lat="32.355876" lon="131.078078">
 <ele>1204.855000</ele>
 <time>2026-05-04T02:33:28Z</time>
</trkpt>
<trkpt lat="32.355962" lon="131.078145">
 <ele>1206.625000</ele>
 <time>2026-05-04T02:33:38Z</time>
</trkpt>
<trkpt lat="32.356058" lon="131.078238">
 <ele>1208.371000</ele>
 <time>2026-05-04T02:33:48Z</time>
</trkpt>
<trkpt lat="32.356198" lon="131.078252">
 <ele>1210.621000</ele>
 <time>2026-05-04T02:33:58Z</time>
</trkpt>
<trkpt lat="32.356326" lon="131.078198">
 <ele>1212.994000</ele>
 <time>2026-05-04T02:34:08Z</time>
</trkpt>
<trkpt lat="32.356477" lon="131.078198">
 <ele>1215.680000</ele>
 <time>2026-05-04T02:34:18Z</time>
</trkpt>
<trkpt lat="32.356627" lon="131.078185">
 <ele>1220.007000</ele>
 <time>2026-05-04T02:34:28Z</time>
</trkpt>
<trkpt lat="32.356751" lon="131.078134">
 <ele>1222.719000</ele>
 <time>2026-05-04T02:34:38Z</time>
</trkpt>
<trkpt lat="32.356897" lon="131.078056">
 <ele>1226.172000</ele>
 <time>2026-05-04T02:34:48Z</time>
</trkpt>
<trkpt lat="32.357105" lon="131.078030">
 <ele>1233.668000</ele>
 <time>2026-05-04T02:34:58Z</time>
</trkpt>
<trkpt lat="32.357167" lon="131.078160">
 <ele>1240.289000</ele>
 <time>2026-05-04T02:35:08Z</time>
</trkpt>
<trkpt lat="32.357271" lon="131.078160">
 <ele>1240.639000</ele>
 <time>2026-05-04T02:35:18Z</time>
</trkpt>
<trkpt lat="32.357490" lon="131.078147">
 <ele>1250.756000</ele>
 <time>2026-05-04T02:35:28Z</time>
</trkpt>
<trkpt lat="32.357604" lon="131.078134">
 <ele>1255.778000</ele>
 <time>2026-05-04T02:35:38Z</time>
</trkpt>
<trkpt lat="32.357677" lon="131.078108">
 <ele>1256.682000</ele>
 <time>2026-05-04T02:35:48Z</time>
</trkpt>
<trkpt lat="32.357781" lon="131.078082">
 <ele>1259.815000</ele>
 <time>2026-05-04T02:35:58Z</time>
</trkpt>
<trkpt lat="32.357885" lon="131.078030">
 <ele>1263.187000</ele>
 <time>2026-05-04T02:36:08Z</time>
</trkpt>
<trkpt lat="32.357979" lon="131.078030">
 <ele>1268.637000</ele>
 <time>2026-05-04T02:36:18Z</time>
</trkpt>
<trkpt lat="32.358083" lon="131.078030">
 <ele>1272.893000</ele>
 <time>2026-05-04T02:36:28Z</time>
</trkpt>
<trkpt lat="32.358218" lon="131.078069">
 <ele>1282.289000</ele>
 <time>2026-05-04T02:36:38Z</time>
</trkpt>
<trkpt lat="32.358333" lon="131.078095">
 <ele>1285.666000</ele>
 <time>2026-05-04T02:36:48Z</time>
</trkpt>
<trkpt lat="32.358499" lon="131.078121">
 <ele>1295.968000</ele>
 <time>2026-05-04T02:36:58Z</time>
</trkpt>
<trkpt lat="32.358634" lon="131.078173">
 <ele>1303.155000</ele>
 <time>2026-05-04T02:37:08Z</time>
</trkpt>
<trkpt lat="32.358884" lon="131.078095">
 <ele>1311.747000</ele>
 <time>2026-05-04T02:37:18Z</time>
</trkpt>
<trkpt lat="32.358926" lon="131.078069">
 <ele>1314.373000</ele>
 <time>2026-05-04T02:37:28Z</time>
</trkpt>
<trkpt lat="32.359102" lon="131.078030">
 <ele>1323.439000</ele>
 <time>2026-05-04T02:37:38Z</time>
</trkpt>
<trkpt lat="32.359196" lon="131.078017">
 <ele>1329.163000</ele>
 <time>2026-05-04T02:37:48Z</time>
</trkpt>
<trkpt lat="32.359269" lon="131.078017">
 <ele>1332.549000</ele>
 <time>2026-05-04T02:37:58Z</time>
</trkpt>
<trkpt lat="32.359363" lon="131.078082">
 <ele>1335.290000</ele>
 <time>2026-05-04T02:38:08Z</time>
</trkpt>
<trkpt lat="32.359363" lon="131.078082">
 <ele>1335.290000</ele>
 <time>2026-05-04T02:38:18Z</time>
</trkpt>
<trkpt lat="32.359435" lon="131.078004">
 <ele>1340.851000</ele>
 <time>2026-05-04T02:38:28Z</time>
</trkpt>
<trkpt lat="32.359550" lon="131.078043">
 <ele>1347.051000</ele>
 <time>2026-05-04T02:38:38Z</time>
</trkpt>
<trkpt lat="32.359654" lon="131.078069">
 <ele>1350.170000</ele>
 <time>2026-05-04T02:38:48Z</time>
</trkpt>
<trkpt lat="32.359727" lon="131.078082">
 <ele>1353.884000</ele>
 <time>2026-05-04T02:38:58Z</time>
</trkpt>
<trkpt lat="32.359852" lon="131.078121">
 <ele>1359.617000</ele>
 <time>2026-05-04T02:39:08Z</time>
</trkpt>
<trkpt lat="32.359945" lon="131.078121">
 <ele>1360.723000</ele>
 <time>2026-05-04T02:39:18Z</time>
</trkpt>
<trkpt lat="32.359996" lon="131.077838">
 <ele>1371.042000</ele>
 <time>2026-05-04T02:39:28Z</time>
</trkpt>
<trkpt lat="32.359996" lon="131.077704">
 <ele>1374.412000</ele>
 <time>2026-05-04T02:39:38Z</time>
</trkpt>
<trkpt lat="32.360006" lon="131.077502">
 <ele>1378.912000</ele>
 <time>2026-05-04T02:39:48Z</time>
</trkpt>
<trkpt lat="32.360006" lon="131.077207">
 <ele>1390.079000</ele>
 <time>2026-05-04T02:39:58Z</time>
</trkpt>
<trkpt lat="32.360017" lon="131.076939">
 <ele>1395.823000</ele>
 <time>2026-05-04T02:40:08Z</time>
</trkpt>
<trkpt lat="32.360049" lon="131.076805">
 <ele>1397.736000</ele>
 <time>2026-05-04T02:40:18Z</time>
</trkpt>
<trkpt lat="32.360092" lon="131.076658">
 <ele>1402.964000</ele>
 <time>2026-05-04T02:40:28Z</time>
</trkpt>
<trkpt lat="32.360103" lon="131.076416">
 <ele>1414.445000</ele>
 <time>2026-05-04T02:40:38Z</time>
</trkpt>
<trkpt lat="32.360135" lon="131.076202">
 <ele>1422.243000</ele>
 <time>2026-05-04T02:40:48Z</time>
</trkpt>
<trkpt lat="32.360157" lon="131.076161">
 <ele>1424.034000</ele>
 <time>2026-05-04T02:40:58Z</time>
</trkpt>
<trkpt lat="32.360167" lon="131.076054">
 <ele>1428.390000</ele>
 <time>2026-05-04T02:41:08Z</time>
</trkpt>
<trkpt lat="32.360167" lon="131.075907">
 <ele>1433.427000</ele>
 <time>2026-05-04T02:41:18Z</time>
</trkpt>
<trkpt lat="32.360157" lon="131.075772">
 <ele>1437.224000</ele>
 <time>2026-05-04T02:41:28Z</time>
</trkpt>
<trkpt lat="32.360221" lon="131.075638">
 <ele>1440.578000</ele>
 <time>2026-05-04T02:41:38Z</time>
</trkpt>
<trkpt lat="32.360350" lon="131.075424">
 <ele>1450.754000</ele>
 <time>2026-05-04T02:41:48Z</time>
</trkpt>
<trkpt lat="32.360489" lon="131.075249">
 <ele>1459.457000</ele>
 <time>2026-05-04T02:41:58Z</time>
</trkpt>
<trkpt lat="32.360554" lon="131.075169">
 <ele>1462.278000</ele>
 <time>2026-05-04T02:42:08Z</time>
</trkpt>
<trkpt lat="32.360618" lon="131.075075">
 <ele>1464.169000</ele>
 <time>2026-05-04T02:42:18Z</time>
</trkpt>
<trkpt lat="32.360682" lon="131.074968">
 <ele>1467.044000</ele>
 <time>2026-05-04T02:42:28Z</time>
</trkpt>
<trkpt lat="32.360779" lon="131.074807">
 <ele>1469.024000</ele>
 <time>2026-05-04T02:42:38Z</time>
</trkpt>
<trkpt lat="32.360843" lon="131.074700">
 <ele>1471.490000</ele>
 <time>2026-05-04T02:42:48Z</time>
</trkpt>
<trkpt lat="32.360929" lon="131.074579">
 <ele>1473.025000</ele>
 <time>2026-05-04T02:42:58Z</time>
</trkpt>
<trkpt lat="32.360961" lon="131.074472">
 <ele>1475.554000</ele>
 <time>2026-05-04T02:43:08Z</time>
</trkpt>
<trkpt lat="32.361015" lon="131.074378">
 <ele>1475.768000</ele>
 <time>2026-05-04T02:43:18Z</time>
</trkpt>
<trkpt lat="32.361154" lon="131.074297">
 <ele>1471.727000</ele>
 <time>2026-05-04T02:43:28Z</time>
</trkpt>
<trkpt lat="32.361305" lon="131.074284">
 <ele>1466.218000</ele>
 <time>2026-05-04T02:43:38Z</time>
</trkpt>
<trkpt lat="32.361401" lon="131.074270">
 <ele>1462.153000</ele>
 <time>2026-05-04T02:43:48Z</time>
</trkpt>
<trkpt lat="32.361551" lon="131.074203">
 <ele>1457.855000</ele>
 <time>2026-05-04T02:43:58Z</time>
</trkpt>
<trkpt lat="32.361755" lon="131.074244">
 <ele>1452.007000</ele>
 <time>2026-05-04T02:44:08Z</time>
</trkpt>
<trkpt lat="32.361895" lon="131.074270">
 <ele>1449.521000</ele>
 <time>2026-05-04T02:44:18Z</time>
</trkpt>
<trkpt lat="32.362099" lon="131.074364">
 <ele>1449.622000</ele>
 <time>2026-05-04T02:44:28Z</time>
</trkpt>
<trkpt lat="32.362217" lon="131.074364">
 <ele>1450.733000</ele>
 <time>2026-05-04T02:44:38Z</time>
</trkpt>
<trkpt lat="32.362410" lon="131.074431">
 <ele>1449.443000</ele>
 <time>2026-05-04T02:44:48Z</time>
</trkpt>
<trkpt lat="32.362549" lon="131.074445">
 <ele>1448.432000</ele>
 <time>2026-05-04T02:44:58Z</time>
</trkpt>
<trkpt lat="32.362732" lon="131.074418">
 <ele>1454.485000</ele>
 <time>2026-05-04T02:45:08Z</time>
</trkpt>
<trkpt lat="32.362871" lon="131.074418">
 <ele>1459.510000</ele>
 <time>2026-05-04T02:45:18Z</time>
</trkpt>
<trkpt lat="32.362946" lon="131.074418">
 <ele>1460.741000</ele>
 <time>2026-05-04T02:45:28Z</time>
</trkpt>
<trkpt lat="32.363064" lon="131.074404">
 <ele>1458.615000</ele>
 <time>2026-05-04T02:45:38Z</time>
</trkpt>
<trkpt lat="32.363246" lon="131.074324">
 <ele>1453.760000</ele>
 <time>2026-05-04T02:45:48Z</time>
</trkpt>
<trkpt lat="32.363354" lon="131.074284">
 <ele>1453.874000</ele>
 <time>2026-05-04T02:45:58Z</time>
</trkpt>
<trkpt lat="32.363483" lon="131.074217">
 <ele>1456.198000</ele>
 <time>2026-05-04T02:46:08Z</time>
</trkpt>
<trkpt lat="32.363590" lon="131.074190">
 <ele>1458.699000</ele>
 <time>2026-05-04T02:46:18Z</time>
</trkpt>
<trkpt lat="32.363772" lon="131.074177">
 <ele>1462.934000</ele>
 <time>2026-05-04T02:46:28Z</time>
</trkpt>
<trkpt lat="32.363869" lon="131.074163">
 <ele>1462.940000</ele>
 <time>2026-05-04T02:46:38Z</time>
</trkpt>
<trkpt lat="32.363987" lon="131.074136">
 <ele>1463.769000</ele>
 <time>2026-05-04T02:46:48Z</time>
</trkpt>
<trkpt lat="32.364223" lon="131.074109">
 <ele>1467.809000</ele>
 <time>2026-05-04T02:46:58Z</time>
</trkpt>
<trkpt lat="32.364330" lon="131.074083">
 <ele>1468.550000</ele>
 <time>2026-05-04T02:47:08Z</time>
</trkpt>
<trkpt lat="32.364545" lon="131.074096">
 <ele>1465.519000</ele>
 <time>2026-05-04T02:47:18Z</time>
</trkpt>
<trkpt lat="32.364716" lon="131.074069">
 <ele>1466.281000</ele>
 <time>2026-05-04T02:47:28Z</time>
</trkpt>
<trkpt lat="32.364813" lon="131.074056">
 <ele>1467.658000</ele>
 <time>2026-05-04T02:47:38Z</time>
</trkpt>
<trkpt lat="32.364931" lon="131.074056">
 <ele>1472.185000</ele>
 <time>2026-05-04T02:47:48Z</time>
</trkpt>
<trkpt lat="32.365017" lon="131.074056">
 <ele>1476.219000</ele>
 <time>2026-05-04T02:47:58Z</time>
</trkpt>
<trkpt lat="32.365178" lon="131.074096">
 <ele>1479.380000</ele>
 <time>2026-05-04T02:48:08Z</time>
</trkpt>
<trkpt lat="32.365285" lon="131.074096">
 <ele>1481.233000</ele>
 <time>2026-05-04T02:48:18Z</time>
</trkpt>
<trkpt lat="32.365457" lon="131.074056">
 <ele>1483.081000</ele>
 <time>2026-05-04T02:48:28Z</time>
</trkpt>
<trkpt lat="32.365575" lon="131.074056">
 <ele>1486.408000</ele>
 <time>2026-05-04T02:48:38Z</time>
</trkpt>
<trkpt lat="32.365650" lon="131.074042">
 <ele>1488.135000</ele>
 <time>2026-05-04T02:48:48Z</time>
</trkpt>
<trkpt lat="32.365800" lon="131.074002">
 <ele>1490.921000</ele>
 <time>2026-05-04T02:48:58Z</time>
</trkpt>
<trkpt lat="32.365886" lon="131.074002">
 <ele>1492.667000</ele>
 <time>2026-05-04T02:49:08Z</time>
</trkpt>
<trkpt lat="32.365982" lon="131.073989">
 <ele>1495.178000</ele>
 <time>2026-05-04T02:49:18Z</time>
</trkpt>
<trkpt lat="32.366100" lon="131.074016">
 <ele>1499.596000</ele>
 <time>2026-05-04T02:49:28Z</time>
</trkpt>
<trkpt lat="32.366175" lon="131.074069">
 <ele>1501.748000</ele>
 <time>2026-05-04T02:49:38Z</time>
</trkpt>
<trkpt lat="32.366293" lon="131.074136">
 <ele>1507.394000</ele>
 <time>2026-05-04T02:49:48Z</time>
</trkpt>
<trkpt lat="32.366411" lon="131.074177">
 <ele>1512.671000</ele>
 <time>2026-05-04T02:49:58Z</time>
</trkpt>
<trkpt lat="32.366508" lon="131.074190">
 <ele>1516.116000</ele>
 <time>2026-05-04T02:50:08Z</time>
</trkpt>
<trkpt lat="32.366551" lon="131.074230">
 <ele>1517.694000</ele>
 <time>2026-05-04T02:50:18Z</time>
</trkpt>
<trkpt lat="32.366637" lon="131.074297">
 <ele>1520.818000</ele>
 <time>2026-05-04T02:50:28Z</time>
</trkpt>
<trkpt lat="32.366701" lon="131.074364">
 <ele>1523.384000</ele>
 <time>2026-05-04T02:50:38Z</time>
</trkpt>
<trkpt lat="32.366766" lon="131.074404">
 <ele>1525.420000</ele>
 <time>2026-05-04T02:50:48Z</time>
</trkpt>
<trkpt lat="32.366905" lon="131.074498">
 <ele>1527.411000</ele>
 <time>2026-05-04T02:50:58Z</time>
</trkpt>
<trkpt lat="32.366991" lon="131.074579">
 <ele>1525.727000</ele>
 <time>2026-05-04T02:51:08Z</time>
</trkpt>
<trkpt lat="32.367120" lon="131.074686">
 <ele>1525.342000</ele>
 <time>2026-05-04T02:51:18Z</time>
</trkpt>
<trkpt lat="32.367216" lon="131.074820">
 <ele>1524.897000</ele>
 <time>2026-05-04T02:51:28Z</time>
</trkpt>
<trkpt lat="32.367323" lon="131.074887">
 <ele>1523.863000</ele>
 <time>2026-05-04T02:51:38Z</time>
</trkpt>
<trkpt lat="32.367463" lon="131.075021">
 <ele>1520.716000</ele>
 <time>2026-05-04T02:51:48Z</time>
</trkpt>
<trkpt lat="32.367613" lon="131.075115">
 <ele>1521.496000</ele>
 <time>2026-05-04T02:51:58Z</time>
</trkpt>
<trkpt lat="32.367763" lon="131.075169">
 <ele>1521.761000</ele>
 <time>2026-05-04T02:52:08Z</time>
</trkpt>
<trkpt lat="32.367871" lon="131.075290">
 <ele>1519.384000</ele>
 <time>2026-05-04T02:52:18Z</time>
</trkpt>
<trkpt lat="32.367978" lon="131.075357">
 <ele>1523.495000</ele>
 <time>2026-05-04T02:52:28Z</time>
</trkpt>
<trkpt lat="32.368139" lon="131.075491">
 <ele>1530.432000</ele>
 <time>2026-05-04T02:52:38Z</time>
</trkpt>
<trkpt lat="32.368246" lon="131.075625">
 <ele>1534.908000</ele>
 <time>2026-05-04T02:52:48Z</time>
</trkpt>
<trkpt lat="32.368353" lon="131.075705">
 <ele>1540.202000</ele>
 <time>2026-05-04T02:52:58Z</time>
</trkpt>
<trkpt lat="32.368504" lon="131.075746">
 <ele>1547.297000</ele>
 <time>2026-05-04T02:53:08Z</time>
</trkpt>
<trkpt lat="32.368643" lon="131.075799">
 <ele>1554.412000</ele>
 <time>2026-05-04T02:53:18Z</time>
</trkpt>
<trkpt lat="32.368761" lon="131.075826">
 <ele>1558.647000</ele>
 <time>2026-05-04T02:53:28Z</time>
</trkpt>
<trkpt lat="32.368879" lon="131.075839">
 <ele>1562.708000</ele>
 <time>2026-05-04T02:53:38Z</time>
</trkpt>
<trkpt lat="32.369040" lon="131.075853">
 <ele>1564.192000</ele>
 <time>2026-05-04T02:53:48Z</time>
</trkpt>
<trkpt lat="32.369190" lon="131.075853">
 <ele>1566.785000</ele>
 <time>2026-05-04T02:53:58Z</time>
</trkpt>
<trkpt lat="32.369319" lon="131.075853">
 <ele>1569.873000</ele>
 <time>2026-05-04T02:54:08Z</time>
</trkpt>
<trkpt lat="32.369426" lon="131.075853">
 <ele>1570.289000</ele>
 <time>2026-05-04T02:54:18Z</time>
</trkpt>
<trkpt lat="32.369587" lon="131.075920">
 <ele>1566.962000</ele>
 <time>2026-05-04T02:54:28Z</time>
</trkpt>
<trkpt lat="32.369748" lon="131.075947">
 <ele>1570.864000</ele>
 <time>2026-05-04T02:54:38Z</time>
</trkpt>
<trkpt lat="32.369823" lon="131.075960">
 <ele>1572.846000</ele>
 <time>2026-05-04T02:54:48Z</time>
</trkpt>
<trkpt lat="32.370006" lon="131.075960">
 <ele>1585.170000</ele>
 <time>2026-05-04T02:54:58Z</time>
</trkpt>
<trkpt lat="32.370102" lon="131.075987">
 <ele>1589.310000</ele>
 <time>2026-05-04T02:55:08Z</time>
</trkpt>
<trkpt lat="32.370263" lon="131.076041">
 <ele>1597.599000</ele>
 <time>2026-05-04T02:55:18Z</time>
</trkpt>
<trkpt lat="32.370306" lon="131.076041">
 <ele>1600.598000</ele>
 <time>2026-05-04T02:55:28Z</time>
</trkpt>
<trkpt lat="32.370442" lon="131.076072">
 <ele>1606.900000</ele>
 <time>2026-05-04T02:55:38Z</time>
</trkpt>
<trkpt lat="32.370585" lon="131.076202">
 <ele>1598.859000</ele>
 <time>2026-05-04T02:55:48Z</time>
</trkpt>
<trkpt lat="32.370671" lon="131.076255">
 <ele>1592.033000</ele>
 <time>2026-05-04T02:55:58Z</time>
</trkpt>
<trkpt lat="32.370885" lon="131.076295">
 <ele>1580.868000</ele>
 <time>2026-05-04T02:56:08Z</time>
</trkpt>
<trkpt lat="32.371057" lon="131.076309">
 <ele>1571.637000</ele>
 <time>2026-05-04T02:56:18Z</time>
</trkpt>
<trkpt lat="32.371111" lon="131.076336">
 <ele>1567.867000</ele>
 <time>2026-05-04T02:56:28Z</time>
</trkpt>
<trkpt lat="32.371229" lon="131.076363">
 <ele>1562.573000</ele>
 <time>2026-05-04T02:56:38Z</time>
</trkpt>
<trkpt lat="32.371486" lon="131.076443">
 <ele>1551.867000</ele>
 <time>2026-05-04T02:56:48Z</time>
</trkpt>
<trkpt lat="32.371615" lon="131.076510">
 <ele>1547.173000</ele>
 <time>2026-05-04T02:56:58Z</time>
</trkpt>
<trkpt lat="32.371787" lon="131.076658">
 <ele>1544.689000</ele>
 <time>2026-05-04T02:57:08Z</time>
</trkpt>
<trkpt lat="32.372033" lon="131.076805">
 <ele>1546.760000</ele>
 <time>2026-05-04T02:57:18Z</time>
</trkpt>
<trkpt lat="32.372237" lon="131.076912">
 <ele>1549.659000</ele>
 <time>2026-05-04T02:57:28Z</time>
</trkpt>
<trkpt lat="32.372355" lon="131.077033">
 <ele>1548.250000</ele>
 <time>2026-05-04T02:57:38Z</time>
</trkpt>
<trkpt lat="32.372473" lon="131.077221">
 <ele>1544.624000</ele>
 <time>2026-05-04T02:57:48Z</time>
</trkpt>
<trkpt lat="32.372656" lon="131.077342">
 <ele>1552.947000</ele>
 <time>2026-05-04T02:57:58Z</time>
</trkpt>
<trkpt lat="32.372849" lon="131.077610">
 <ele>1557.319000</ele>
 <time>2026-05-04T02:58:08Z</time>
</trkpt>
<trkpt lat="32.372945" lon="131.077784">
 <ele>1559.389000</ele>
 <time>2026-05-04T02:58:18Z</time>
</trkpt>
<trkpt lat="32.373085" lon="131.078066">
 <ele>1565.178000</ele>
 <time>2026-05-04T02:58:28Z</time>
</trkpt>
<trkpt lat="32.373192" lon="131.078361">
 <ele>1566.710000</ele>
 <time>2026-05-04T02:58:38Z</time>
</trkpt>
<trkpt lat="32.373353" lon="131.078575">
 <ele>1566.404000</ele>
 <time>2026-05-04T02:58:48Z</time>
</trkpt>
<trkpt lat="32.373535" lon="131.078897">
 <ele>1570.325000</ele>
 <time>2026-05-04T02:58:58Z</time>
</trkpt>
<trkpt lat="32.373621" lon="131.079058">
 <ele>1572.209000</ele>
 <time>2026-05-04T02:59:08Z</time>
</trkpt>
<trkpt lat="32.373707" lon="131.079246">
 <ele>1572.992000</ele>
 <time>2026-05-04T02:59:18Z</time>
</trkpt>
<trkpt lat="32.373814" lon="131.079474">
 <ele>1576.233000</ele>
 <time>2026-05-04T02:59:28Z</time>
</trkpt>
<trkpt lat="32.373943" lon="131.079662">
 <ele>1579.296000</ele>
 <time>2026-05-04T02:59:38Z</time>
</trkpt>
<trkpt lat="32.374061" lon="131.079782">
 <ele>1579.117000</ele>
 <time>2026-05-04T02:59:48Z</time>
</trkpt>
<trkpt lat="32.374179" lon="131.079916">
 <ele>1578.572000</ele>
 <time>2026-05-04T02:59:58Z</time>
</trkpt>
<trkpt lat="32.374265" lon="131.080051">
 <ele>1577.388000</ele>
 <time>2026-05-04T03:00:08Z</time>
</trkpt>
<trkpt lat="32.374458" lon="131.080158">
 <ele>1573.834000</ele>
 <time>2026-05-04T03:00:18Z</time>
</trkpt>
<trkpt lat="32.374608" lon="131.080252">
 <ele>1572.003000</ele>
 <time>2026-05-04T03:00:28Z</time>
</trkpt>
<trkpt lat="32.374823" lon="131.080386">
 <ele>1574.244000</ele>
 <time>2026-05-04T03:00:38Z</time>
</trkpt>
<trkpt lat="32.374919" lon="131.080426">
 <ele>1573.833000</ele>
 <time>2026-05-04T03:00:48Z</time>
</trkpt>
<trkpt lat="32.375198" lon="131.080614">
 <ele>1572.661000</ele>
 <time>2026-05-04T03:00:58Z</time>
</trkpt>
<trkpt lat="32.375327" lon="131.080721">
 <ele>1573.423000</ele>
 <time>2026-05-04T03:01:08Z</time>
</trkpt>
<trkpt lat="32.375477" lon="131.080788">
 <ele>1574.014000</ele>
 <time>2026-05-04T03:01:18Z</time>
</trkpt>
<trkpt lat="32.375692" lon="131.080936">
 <ele>1569.736000</ele>
 <time>2026-05-04T03:01:28Z</time>
</trkpt>
<trkpt lat="32.375874" lon="131.081217">
 <ele>1564.843000</ele>
 <time>2026-05-04T03:01:38Z</time>
</trkpt>
<trkpt lat="32.375971" lon="131.081432">
 <ele>1563.628000</ele>
 <time>2026-05-04T03:01:48Z</time>
</trkpt>
<trkpt lat="32.376110" lon="131.081834">
 <ele>1557.278000</ele>
 <time>2026-05-04T03:01:58Z</time>
</trkpt>
<trkpt lat="32.376239" lon="131.082049">
 <ele>1551.141000</ele>
 <time>2026-05-04T03:02:08Z</time>
</trkpt>
<trkpt lat="32.376293" lon="131.082263">
 <ele>1548.302000</ele>
 <time>2026-05-04T03:02:18Z</time>
</trkpt>
<trkpt lat="32.376379" lon="131.082384">
 <ele>1547.129000</ele>
 <time>2026-05-04T03:02:28Z</time>
</trkpt>
<trkpt lat="32.376400" lon="131.082558">
 <ele>1548.128000</ele>
 <time>2026-05-04T03:02:38Z</time>
</trkpt>
<trkpt lat="32.376421" lon="131.082679">
 <ele>1549.002000</ele>
 <time>2026-05-04T03:02:48Z</time>
</trkpt>
<trkpt lat="32.376540" lon="131.082894">
 <ele>1548.954000</ele>
 <time>2026-05-04T03:02:58Z</time>
</trkpt>
<trkpt lat="32.376636" lon="131.083055">
 <ele>1549.036000</ele>
 <time>2026-05-04T03:03:08Z</time>
</trkpt>
<trkpt lat="32.376647" lon="131.083122">
 <ele>1549.931000</ele>
 <time>2026-05-04T03:03:18Z</time>
</trkpt>
<trkpt lat="32.376894" lon="131.083229">
 <ele>1546.642000</ele>
 <time>2026-05-04T03:03:28Z</time>
</trkpt>
<trkpt lat="32.377076" lon="131.083323">
 <ele>1543.754000</ele>
 <time>2026-05-04T03:03:38Z</time>
</trkpt>
<trkpt lat="32.377173" lon="131.083403">
 <ele>1542.089000</ele>
 <time>2026-05-04T03:03:48Z</time>
</trkpt>
<trkpt lat="32.377312" lon="131.083578">
 <ele>1540.428000</ele>
 <time>2026-05-04T03:03:58Z</time>
</trkpt>
<trkpt lat="32.377516" lon="131.083524">
 <ele>1535.576000</ele>
 <time>2026-05-04T03:04:08Z</time>
</trkpt>
<trkpt lat="32.377655" lon="131.083444">
 <ele>1533.713000</ele>
 <time>2026-05-04T03:04:18Z</time>
</trkpt>
<trkpt lat="32.377795" lon="131.083363">
 <ele>1531.869000</ele>
 <time>2026-05-04T03:04:28Z</time>
</trkpt>
<trkpt lat="32.377848" lon="131.083336">
 <ele>1531.082000</ele>
 <time>2026-05-04T03:04:38Z</time>
</trkpt>
<trkpt lat="32.377988" lon="131.083283">
 <ele>1528.413000</ele>
 <time>2026-05-04T03:04:48Z</time>
</trkpt>
<trkpt lat="32.378074" lon="131.083256">
 <ele>1526.690000</ele>
 <time>2026-05-04T03:04:58Z</time>
</trkpt>
<trkpt lat="32.378278" lon="131.083148">
 <ele>1524.205000</ele>
 <time>2026-05-04T03:05:08Z</time>
</trkpt>
<trkpt lat="32.378342" lon="131.083135">
 <ele>1523.588000</ele>
 <time>2026-05-04T03:05:18Z</time>
</trkpt>
<trkpt lat="32.378471" lon="131.083135">
 <ele>1521.629000</ele>
 <time>2026-05-04T03:05:28Z</time>
</trkpt>
<trkpt lat="32.378535" lon="131.083148">
 <ele>1519.434000</ele>
 <time>2026-05-04T03:05:38Z</time>
</trkpt>
<trkpt lat="32.378621" lon="131.083162">
 <ele>1516.086000</ele>
 <time>2026-05-04T03:05:48Z</time>
</trkpt>
<trkpt lat="32.378739" lon="131.083202">
 <ele>1510.453000</ele>
 <time>2026-05-04T03:05:58Z</time>
</trkpt>
<trkpt lat="32.378889" lon="131.083283">
 <ele>1501.053000</ele>
 <time>2026-05-04T03:06:08Z</time>
</trkpt>
<trkpt lat="32.378975" lon="131.083309">
 <ele>1495.679000</ele>
 <time>2026-05-04T03:06:18Z</time>
</trkpt>
<trkpt lat="32.379168" lon="131.083323">
 <ele>1485.701000</ele>
 <time>2026-05-04T03:06:28Z</time>
</trkpt>
<trkpt lat="32.379232" lon="131.083323">
 <ele>1482.256000</ele>
 <time>2026-05-04T03:06:38Z</time>
</trkpt>
<trkpt lat="32.379426" lon="131.083350">
 <ele>1471.695000</ele>
 <time>2026-05-04T03:06:48Z</time>
</trkpt>
<trkpt lat="32.379479" lon="131.083363">
 <ele>1468.058000</ele>
 <time>2026-05-04T03:06:58Z</time>
</trkpt>
<trkpt lat="32.379576" lon="131.083376">
 <ele>1461.775000</ele>
 <time>2026-05-04T03:07:08Z</time>
</trkpt>
<trkpt lat="32.379640" lon="131.083376">
 <ele>1457.267000</ele>
 <time>2026-05-04T03:07:18Z</time>
</trkpt>
<trkpt lat="32.379747" lon="131.083390">
 <ele>1450.827000</ele>
 <time>2026-05-04T03:07:28Z</time>
</trkpt>
<trkpt lat="32.380016" lon="131.083363">
 <ele>1435.807000</ele>
 <time>2026-05-04T03:07:38Z</time>
</trkpt>
<trkpt lat="32.380123" lon="131.083363">
 <ele>1430.145000</ele>
 <time>2026-05-04T03:07:48Z</time>
</trkpt>
<trkpt lat="32.380262" lon="131.083376">
 <ele>1428.033000</ele>
 <time>2026-05-04T03:07:58Z</time>
</trkpt>
<trkpt lat="32.380445" lon="131.083497">
 <ele>1424.089000</ele>
 <time>2026-05-04T03:08:08Z</time>
</trkpt>
<trkpt lat="32.380574" lon="131.083497">
 <ele>1420.731000</ele>
 <time>2026-05-04T03:08:18Z</time>
</trkpt>
<trkpt lat="32.380863" lon="131.083497">
 <ele>1415.108000</ele>
 <time>2026-05-04T03:08:28Z</time>
</trkpt>
<trkpt lat="32.380938" lon="131.083497">
 <ele>1413.656000</ele>
 <time>2026-05-04T03:08:38Z</time>
</trkpt>
<trkpt lat="32.381003" lon="131.083524">
 <ele>1412.082000</ele>
 <time>2026-05-04T03:08:48Z</time>
</trkpt>
<trkpt lat="32.381185" lon="131.083537">
 <ele>1409.134000</ele>
 <time>2026-05-04T03:08:58Z</time>
</trkpt>
<trkpt lat="32.381239" lon="131.083537">
 <ele>1408.352000</ele>
 <time>2026-05-04T03:09:08Z</time>
</trkpt>
<trkpt lat="32.381367" lon="131.083578">
 <ele>1405.781000</ele>
 <time>2026-05-04T03:09:18Z</time>
</trkpt>
<trkpt lat="32.381464" lon="131.083739">
 <ele>1400.261000</ele>
 <time>2026-05-04T03:09:28Z</time>
</trkpt>
<trkpt lat="32.381496" lon="131.083967">
 <ele>1393.308000</ele>
 <time>2026-05-04T03:09:38Z</time>
</trkpt>
<trkpt lat="32.381528" lon="131.084128">
 <ele>1387.901000</ele>
 <time>2026-05-04T03:09:48Z</time>
</trkpt>
<trkpt lat="32.381582" lon="131.084423">
 <ele>1378.831000</ele>
 <time>2026-05-04T03:09:58Z</time>
</trkpt>
<trkpt lat="32.381625" lon="131.084651">
 <ele>1373.834000</ele>
 <time>2026-05-04T03:10:08Z</time>
</trkpt>
<trkpt lat="32.381668" lon="131.084744">
 <ele>1371.007000</ele>
 <time>2026-05-04T03:10:18Z</time>
</trkpt>
<trkpt lat="32.381722" lon="131.084919">
 <ele>1365.517000</ele>
 <time>2026-05-04T03:10:28Z</time>
</trkpt>
<trkpt lat="32.381775" lon="131.085013">
 <ele>1361.574000</ele>
 <time>2026-05-04T03:10:38Z</time>
</trkpt>
<trkpt lat="32.381850" lon="131.085133">
 <ele>1356.756000</ele>
 <time>2026-05-04T03:10:48Z</time>
</trkpt>
<trkpt lat="32.381968" lon="131.085147">
 <ele>1355.902000</ele>
 <time>2026-05-04T03:10:58Z</time>
</trkpt>
<trkpt lat="32.382183" lon="131.085147">
 <ele>1352.057000</ele>
 <time>2026-05-04T03:11:08Z</time>
</trkpt>
<trkpt lat="32.382397" lon="131.085120">
 <ele>1348.848000</ele>
 <time>2026-05-04T03:11:18Z</time>
</trkpt>
<trkpt lat="32.382526" lon="131.085053">
 <ele>1351.057000</ele>
 <time>2026-05-04T03:11:28Z</time>
</trkpt>
<trkpt lat="32.382730" lon="131.085066">
 <ele>1354.604000</ele>
 <time>2026-05-04T03:11:38Z</time>
</trkpt>
<trkpt lat="32.382848" lon="131.085053">
 <ele>1355.338000</ele>
 <time>2026-05-04T03:11:48Z</time>
</trkpt>
<trkpt lat="32.382945" lon="131.084999">
 <ele>1357.151000</ele>
 <time>2026-05-04T03:11:58Z</time>
</trkpt>
<trkpt lat="32.383095" lon="131.085133">
 <ele>1356.243000</ele>
 <time>2026-05-04T03:12:08Z</time>
</trkpt>
<trkpt lat="32.383159" lon="131.085214">
 <ele>1357.329000</ele>
 <time>2026-05-04T03:12:18Z</time>
</trkpt>
<trkpt lat="32.383256" lon="131.085294">
 <ele>1360.817000</ele>
 <time>2026-05-04T03:12:28Z</time>
</trkpt>
<trkpt lat="32.383309" lon="131.085361">
 <ele>1364.183000</ele>
 <time>2026-05-04T03:12:38Z</time>
</trkpt>
<trkpt lat="32.383385" lon="131.085442">
 <ele>1367.542000</ele>
 <time>2026-05-04T03:12:48Z</time>
</trkpt>
<trkpt lat="32.383545" lon="131.085616">
 <ele>1377.487000</ele>
 <time>2026-05-04T03:12:58Z</time>
</trkpt>
<trkpt lat="32.383631" lon="131.085656">
 <ele>1380.745000</ele>
 <time>2026-05-04T03:13:08Z</time>
</trkpt>
<trkpt lat="32.383760" lon="131.085670">
 <ele>1385.855000</ele>
 <time>2026-05-04T03:13:18Z</time>
</trkpt>
<trkpt lat="32.383846" lon="131.085697">
 <ele>1388.797000</ele>
 <time>2026-05-04T03:13:28Z</time>
</trkpt>
<trkpt lat="32.383975" lon="131.085737">
 <ele>1386.134000</ele>
 <time>2026-05-04T03:13:38Z</time>
</trkpt>
<trkpt lat="32.384071" lon="131.085871">
 <ele>1388.445000</ele>
 <time>2026-05-04T03:13:48Z</time>
</trkpt>
<trkpt lat="32.384200" lon="131.086005">
 <ele>1392.739000</ele>
 <time>2026-05-04T03:13:58Z</time>
</trkpt>
<trkpt lat="32.384339" lon="131.086072">
 <ele>1400.964000</ele>
 <time>2026-05-04T03:14:08Z</time>
</trkpt>
<trkpt lat="32.384457" lon="131.086072">
 <ele>1408.648000</ele>
 <time>2026-05-04T03:14:18Z</time>
</trkpt>
<trkpt lat="32.384554" lon="131.086072">
 <ele>1414.376000</ele>
 <time>2026-05-04T03:14:28Z</time>
</trkpt>
<trkpt lat="32.384661" lon="131.086059">
 <ele>1421.293000</ele>
 <time>2026-05-04T03:14:38Z</time>
</trkpt>
<trkpt lat="32.384801" lon="131.086153">
 <ele>1429.841000</ele>
 <time>2026-05-04T03:14:48Z</time>
</trkpt>
<trkpt lat="32.384833" lon="131.086206">
 <ele>1430.696000</ele>
 <time>2026-05-04T03:14:58Z</time>
</trkpt>
<trkpt lat="32.385058" lon="131.086005">
 <ele>1433.364000</ele>
 <time>2026-05-04T03:15:08Z</time>
</trkpt>
<trkpt lat="32.385123" lon="131.085884">
 <ele>1431.535000</ele>
 <time>2026-05-04T03:15:18Z</time>
</trkpt>
<trkpt lat="32.385241" lon="131.085697">
 <ele>1430.730000</ele>
 <time>2026-05-04T03:15:28Z</time>
</trkpt>
<trkpt lat="32.385294" lon="131.085522">
 <ele>1430.686000</ele>
 <time>2026-05-04T03:15:38Z</time>
</trkpt>
<trkpt lat="32.385348" lon="131.085375">
 <ele>1425.115000</ele>
 <time>2026-05-04T03:15:48Z</time>
</trkpt>
<trkpt lat="32.385273" lon="131.085562">
 <ele>1431.271000</ele>
 <time>2026-05-04T03:15:58Z</time>
</trkpt>
<trkpt lat="32.385273" lon="131.085697">
 <ele>1429.541000</ele>
 <time>2026-05-04T03:16:08Z</time>
</trkpt>
<trkpt lat="32.385176" lon="131.085871">
 <ele>1429.474000</ele>
 <time>2026-05-04T03:16:18Z</time>
</trkpt>
<trkpt lat="32.385037" lon="131.085992">
 <ele>1434.565000</ele>
 <time>2026-05-04T03:16:28Z</time>
</trkpt>
<trkpt lat="32.384919" lon="131.086112">
 <ele>1434.930000</ele>
 <time>2026-05-04T03:16:38Z</time>
</trkpt>
<trkpt lat="32.384811" lon="131.086179">
 <ele>1430.101000</ele>
 <time>2026-05-04T03:16:48Z</time>
</trkpt>
<trkpt lat="32.384672" lon="131.086059">
 <ele>1421.990000</ele>
 <time>2026-05-04T03:16:58Z</time>
</trkpt>
<trkpt lat="32.384522" lon="131.086045">
 <ele>1412.517000</ele>
 <time>2026-05-04T03:17:08Z</time>
</trkpt>
<trkpt lat="32.384414" lon="131.086059">
 <ele>1406.031000</ele>
 <time>2026-05-04T03:17:18Z</time>
</trkpt>
<trkpt lat="32.384307" lon="131.086059">
 <ele>1398.891000</ele>
 <time>2026-05-04T03:17:28Z</time>
</trkpt>
<trkpt lat="32.384211" lon="131.085992">
 <ele>1393.334000</ele>
 <time>2026-05-04T03:17:38Z</time>
</trkpt>
<trkpt lat="32.384136" lon="131.085925">
 <ele>1389.938000</ele>
 <time>2026-05-04T03:17:48Z</time>
</trkpt>
<trkpt lat="32.383985" lon="131.085750">
 <ele>1386.347000</ele>
 <time>2026-05-04T03:17:58Z</time>
</trkpt>
<trkpt lat="32.383889" lon="131.085630">
 <ele>1385.464000</ele>
 <time>2026-05-04T03:18:08Z</time>
</trkpt>
<trkpt lat="32.383760" lon="131.085616">
 <ele>1383.876000</ele>
 <time>2026-05-04T03:18:18Z</time>
</trkpt>
<trkpt lat="32.383663" lon="131.085616">
 <ele>1379.721000</ele>
 <time>2026-05-04T03:18:28Z</time>
</trkpt>
<trkpt lat="32.383545" lon="131.085589">
 <ele>1376.634000</ele>
 <time>2026-05-04T03:18:38Z</time>
</trkpt>
<trkpt lat="32.383385" lon="131.085415">
 <ele>1366.691000</ele>
 <time>2026-05-04T03:18:48Z</time>
</trkpt>
<trkpt lat="32.383320" lon="131.085334">
 <ele>1362.594000</ele>
 <time>2026-05-04T03:18:58Z</time>
</trkpt>
<trkpt lat="32.383191" lon="131.085214">
 <ele>1356.995000</ele>
 <time>2026-05-04T03:19:08Z</time>
</trkpt>
<trkpt lat="32.383063" lon="131.085080">
 <ele>1356.730000</ele>
 <time>2026-05-04T03:19:18Z</time>
</trkpt>
<trkpt lat="32.382977" lon="131.084999">
 <ele>1356.923000</ele>
 <time>2026-05-04T03:19:28Z</time>
</trkpt>
<trkpt lat="32.382784" lon="131.084999">
 <ele>1356.591000</ele>
 <time>2026-05-04T03:19:38Z</time>
</trkpt>
<trkpt lat="32.382655" lon="131.085066">
 <ele>1353.733000</ele>
 <time>2026-05-04T03:19:48Z</time>
</trkpt>
<trkpt lat="32.382462" lon="131.085093">
 <ele>1350.555000</ele>
 <time>2026-05-04T03:19:58Z</time>
</trkpt>
<trkpt lat="32.382312" lon="131.085107">
 <ele>1350.926000</ele>
 <time>2026-05-04T03:20:08Z</time>
</trkpt>
<trkpt lat="32.382086" lon="131.085133">
 <ele>1355.911000</ele>
 <time>2026-05-04T03:20:18Z</time>
</trkpt>
<trkpt lat="32.381904" lon="131.085147">
 <ele>1356.107000</ele>
 <time>2026-05-04T03:20:28Z</time>
</trkpt>
<trkpt lat="32.381797" lon="131.085053">
 <ele>1359.760000</ele>
 <time>2026-05-04T03:20:38Z</time>
</trkpt>
<trkpt lat="32.381722" lon="131.084879">
 <ele>1366.654000</ele>
 <time>2026-05-04T03:20:48Z</time>
</trkpt>
<trkpt lat="32.381646" lon="131.084651">
 <ele>1373.287000</ele>
 <time>2026-05-04T03:20:58Z</time>
</trkpt>
<trkpt lat="32.381625" lon="131.084516">
 <ele>1375.238000</ele>
 <time>2026-05-04T03:21:08Z</time>
</trkpt>
<trkpt lat="32.381561" lon="131.084315">
 <ele>1382.306000</ele>
 <time>2026-05-04T03:21:18Z</time>
</trkpt>
<trkpt lat="32.381528" lon="131.084114">
 <ele>1388.297000</ele>
 <time>2026-05-04T03:21:28Z</time>
</trkpt>
<trkpt lat="32.381496" lon="131.083900">
 <ele>1395.122000</ele>
 <time>2026-05-04T03:21:38Z</time>
</trkpt>
<trkpt lat="32.381486" lon="131.083752">
 <ele>1399.499000</ele>
 <time>2026-05-04T03:21:48Z</time>
</trkpt>
<trkpt lat="32.381421" lon="131.083631">
 <ele>1404.048000</ele>
 <time>2026-05-04T03:21:58Z</time>
</trkpt>
<trkpt lat="32.381282" lon="131.083537">
 <ele>1407.660000</ele>
 <time>2026-05-04T03:22:08Z</time>
</trkpt>
<trkpt lat="32.381252" lon="131.083513">
 <ele>1408.311000</ele>
 <time>2026-05-04T03:22:18Z</time>
</trkpt>
<trkpt lat="32.381074" lon="131.083498">
 <ele>1411.250000</ele>
 <time>2026-05-04T03:22:28Z</time>
</trkpt>
<trkpt lat="32.380873" lon="131.083498">
 <ele>1414.889000</ele>
 <time>2026-05-04T03:22:38Z</time>
</trkpt>
<trkpt lat="32.380625" lon="131.083513">
 <ele>1419.261000</ele>
 <time>2026-05-04T03:22:48Z</time>
</trkpt>
<trkpt lat="32.380506" lon="131.083498">
 <ele>1422.406000</ele>
 <time>2026-05-04T03:22:58Z</time>
</trkpt>
<trkpt lat="32.380305" lon="131.083469">
 <ele>1427.709000</ele>
 <time>2026-05-04T03:23:08Z</time>
</trkpt>
<trkpt lat="32.380210" lon="131.083350">
 <ele>1428.030000</ele>
 <time>2026-05-04T03:23:18Z</time>
</trkpt>
<trkpt lat="32.379973" lon="131.083335">
 <ele>1437.684000</ele>
 <time>2026-05-04T03:23:28Z</time>
</trkpt>
<trkpt lat="32.379867" lon="131.083365">
 <ele>1444.526000</ele>
 <time>2026-05-04T03:23:38Z</time>
</trkpt>
<trkpt lat="32.379701" lon="131.083365">
 <ele>1453.305000</ele>
 <time>2026-05-04T03:23:48Z</time>
</trkpt>
<trkpt lat="32.379476" lon="131.083365">
 <ele>1468.258000</ele>
 <time>2026-05-04T03:23:58Z</time>
</trkpt>
<trkpt lat="32.379322" lon="131.083350">
 <ele>1477.307000</ele>
 <time>2026-05-04T03:24:08Z</time>
</trkpt>
<trkpt lat="32.379180" lon="131.083306">
 <ele>1485.576000</ele>
 <time>2026-05-04T03:24:18Z</time>
</trkpt>
<trkpt lat="32.378967" lon="131.083232">
 <ele>1498.061000</ele>
 <time>2026-05-04T03:24:28Z</time>
</trkpt>
<trkpt lat="32.378813" lon="131.083202">
 <ele>1506.637000</ele>
 <time>2026-05-04T03:24:38Z</time>
</trkpt>
<trkpt lat="32.378730" lon="131.083158">
 <ele>1511.087000</ele>
 <time>2026-05-04T03:24:48Z</time>
</trkpt>
<trkpt lat="32.378577" lon="131.083128">
 <ele>1518.117000</ele>
 <time>2026-05-04T03:24:58Z</time>
</trkpt>
<trkpt lat="32.378470" lon="131.083113">
 <ele>1521.921000</ele>
 <time>2026-05-04T03:25:08Z</time>
</trkpt>
<trkpt lat="32.378281" lon="131.083158">
 <ele>1524.081000</ele>
 <time>2026-05-04T03:25:18Z</time>
</trkpt>
<trkpt lat="32.378150" lon="131.083187">
 <ele>1525.893000</ele>
 <time>2026-05-04T03:25:28Z</time>
</trkpt>
<trkpt lat="32.377949" lon="131.083306">
 <ele>1529.121000</ele>
 <time>2026-05-04T03:25:38Z</time>
</trkpt>
<trkpt lat="32.377831" lon="131.083409">
 <ele>1531.030000</ele>
 <time>2026-05-04T03:25:48Z</time>
</trkpt>
<trkpt lat="32.377582" lon="131.083572">
 <ele>1533.695000</ele>
 <time>2026-05-04T03:25:58Z</time>
</trkpt>
<trkpt lat="32.377369" lon="131.083587">
 <ele>1539.031000</ele>
 <time>2026-05-04T03:26:08Z</time>
</trkpt>
<trkpt lat="32.377298" lon="131.083557">
 <ele>1540.634000</ele>
 <time>2026-05-04T03:26:18Z</time>
</trkpt>
<trkpt lat="32.377227" lon="131.083483">
 <ele>1541.599000</ele>
 <time>2026-05-04T03:26:28Z</time>
</trkpt>
<trkpt lat="32.377156" lon="131.083395">
 <ele>1542.388000</ele>
 <time>2026-05-04T03:26:38Z</time>
</trkpt>
<trkpt lat="32.376955" lon="131.083321">
 <ele>1546.603000</ele>
 <time>2026-05-04T03:26:48Z</time>
</trkpt>
<trkpt lat="32.376884" lon="131.083232">
 <ele>1546.918000</ele>
 <time>2026-05-04T03:26:58Z</time>
</trkpt>
<trkpt lat="32.376777" lon="131.083143">
 <ele>1547.681000</ele>
 <time>2026-05-04T03:27:08Z</time>
</trkpt>
<trkpt lat="32.376647" lon="131.083084">
 <ele>1549.367000</ele>
 <time>2026-05-04T03:27:18Z</time>
</trkpt>
<trkpt lat="32.376623" lon="131.082891">
 <ele>1547.433000</ele>
 <time>2026-05-04T03:27:28Z</time>
</trkpt>
<trkpt lat="32.376517" lon="131.082817">
 <ele>1548.816000</ele>
 <time>2026-05-04T03:27:38Z</time>
</trkpt>
<trkpt lat="32.376446" lon="131.082699">
 <ele>1548.826000</ele>
 <time>2026-05-04T03:27:48Z</time>
</trkpt>
<trkpt lat="32.376422" lon="131.082507">
 <ele>1547.495000</ele>
 <time>2026-05-04T03:27:58Z</time>
</trkpt>
<trkpt lat="32.376375" lon="131.082314">
 <ele>1547.213000</ele>
 <time>2026-05-04T03:28:08Z</time>
</trkpt>
<trkpt lat="32.376315" lon="131.082137">
 <ele>1549.081000</ele>
 <time>2026-05-04T03:28:18Z</time>
</trkpt>
<trkpt lat="32.376232" lon="131.082048">
 <ele>1551.243000</ele>
 <time>2026-05-04T03:28:28Z</time>
</trkpt>
<trkpt lat="32.376185" lon="131.081944">
 <ele>1553.695000</ele>
 <time>2026-05-04T03:28:38Z</time>
</trkpt>
<trkpt lat="32.376126" lon="131.081796">
 <ele>1557.250000</ele>
 <time>2026-05-04T03:28:48Z</time>
</trkpt>
<trkpt lat="32.376031" lon="131.081604">
 <ele>1560.913000</ele>
 <time>2026-05-04T03:28:58Z</time>
</trkpt>
<trkpt lat="32.375996" lon="131.081486">
 <ele>1562.869000</ele>
 <time>2026-05-04T03:29:08Z</time>
</trkpt>
<trkpt lat="32.375913" lon="131.081264">
 <ele>1564.253000</ele>
 <time>2026-05-04T03:29:18Z</time>
</trkpt>
<trkpt lat="32.375865" lon="131.081190">
 <ele>1565.279000</ele>
 <time>2026-05-04T03:29:28Z</time>
</trkpt>
<trkpt lat="32.375818" lon="131.081086">
 <ele>1566.862000</ele>
 <time>2026-05-04T03:29:38Z</time>
</trkpt>
<trkpt lat="32.375652" lon="131.080982">
 <ele>1569.364000</ele>
 <time>2026-05-04T03:29:48Z</time>
</trkpt>
<trkpt lat="32.375558" lon="131.080834">
 <ele>1572.532000</ele>
 <time>2026-05-04T03:29:58Z</time>
</trkpt>
<trkpt lat="32.375451" lon="131.080731">
 <ele>1574.708000</ele>
 <time>2026-05-04T03:30:08Z</time>
</trkpt>
<trkpt lat="32.375262" lon="131.080672">
 <ele>1573.064000</ele>
 <time>2026-05-04T03:30:18Z</time>
</trkpt>
<trkpt lat="32.375179" lon="131.080612">
 <ele>1572.403000</ele>
 <time>2026-05-04T03:30:28Z</time>
</trkpt>
<trkpt lat="32.375025" lon="131.080494">
 <ele>1572.128000</ele>
 <time>2026-05-04T03:30:38Z</time>
</trkpt>
<trkpt lat="32.374895" lon="131.080376">
 <ele>1574.060000</ele>
 <time>2026-05-04T03:30:48Z</time>
</trkpt>
<trkpt lat="32.374729" lon="131.080272">
 <ele>1574.379000</ele>
 <time>2026-05-04T03:30:58Z</time>
</trkpt>
<trkpt lat="32.374575" lon="131.080198">
 <ele>1572.447000</ele>
 <time>2026-05-04T03:31:08Z</time>
</trkpt>
<trkpt lat="32.374421" lon="131.080139">
 <ele>1574.455000</ele>
 <time>2026-05-04T03:31:18Z</time>
</trkpt>
<trkpt lat="32.374267" lon="131.080065">
 <ele>1577.353000</ele>
 <time>2026-05-04T03:31:28Z</time>
</trkpt>
<trkpt lat="32.374184" lon="131.079961">
 <ele>1578.821000</ele>
 <time>2026-05-04T03:31:38Z</time>
</trkpt>
<trkpt lat="32.374054" lon="131.079710">
 <ele>1578.262000</ele>
 <time>2026-05-04T03:31:48Z</time>
</trkpt>
<trkpt lat="32.373936" lon="131.079577">
 <ele>1578.024000</ele>
 <time>2026-05-04T03:31:58Z</time>
</trkpt>
<trkpt lat="32.373853" lon="131.079473">
 <ele>1577.108000</ele>
 <time>2026-05-04T03:32:08Z</time>
</trkpt>
<trkpt lat="32.373770" lon="131.079355">
 <ele>1573.547000</ele>
 <time>2026-05-04T03:32:18Z</time>
</trkpt>
<trkpt lat="32.373687" lon="131.079118">
 <ele>1573.517000</ele>
 <time>2026-05-04T03:32:28Z</time>
</trkpt>
<trkpt lat="32.373628" lon="131.078985">
 <ele>1572.863000</ele>
 <time>2026-05-04T03:32:38Z</time>
</trkpt>
<trkpt lat="32.373533" lon="131.078837">
 <ele>1570.070000</ele>
 <time>2026-05-04T03:32:48Z</time>
</trkpt>
<trkpt lat="32.373462" lon="131.078763">
 <ele>1568.476000</ele>
 <time>2026-05-04T03:32:58Z</time>
</trkpt>
<trkpt lat="32.373403" lon="131.078659">
 <ele>1567.136000</ele>
 <time>2026-05-04T03:33:08Z</time>
</trkpt>
<trkpt lat="32.373344" lon="131.078481">
 <ele>1565.915000</ele>
 <time>2026-05-04T03:33:18Z</time>
</trkpt>
<trkpt lat="32.373249" lon="131.078304">
 <ele>1566.090000</ele>
 <time>2026-05-04T03:33:28Z</time>
</trkpt>
<trkpt lat="32.373154" lon="131.078200">
 <ele>1567.092000</ele>
 <time>2026-05-04T03:33:38Z</time>
</trkpt>
<trkpt lat="32.373083" lon="131.078052">
 <ele>1564.924000</ele>
 <time>2026-05-04T03:33:48Z</time>
</trkpt>
<trkpt lat="32.373060" lon="131.077934">
 <ele>1561.235000</ele>
 <time>2026-05-04T03:33:58Z</time>
</trkpt>
<trkpt lat="32.372989" lon="131.077816">
 <ele>1560.429000</ele>
 <time>2026-05-04T03:34:08Z</time>
</trkpt>
<trkpt lat="32.372882" lon="131.077638">
 <ele>1559.041000</ele>
 <time>2026-05-04T03:34:18Z</time>
</trkpt>
<trkpt lat="32.372799" lon="131.077549">
 <ele>1555.408000</ele>
 <time>2026-05-04T03:34:28Z</time>
</trkpt>
<trkpt lat="32.372728" lon="131.077460">
 <ele>1553.414000</ele>
 <time>2026-05-04T03:34:38Z</time>
</trkpt>
<trkpt lat="32.372693" lon="131.077386">
 <ele>1553.599000</ele>
 <time>2026-05-04T03:34:48Z</time>
</trkpt>
<trkpt lat="32.372539" lon="131.077179">
 <ele>1548.743000</ele>
 <time>2026-05-04T03:34:58Z</time>
</trkpt>
<trkpt lat="32.372468" lon="131.077120">
 <ele>1547.160000</ele>
 <time>2026-05-04T03:35:08Z</time>
</trkpt>
<trkpt lat="32.372373" lon="131.077061">
 <ele>1547.003000</ele>
 <time>2026-05-04T03:35:18Z</time>
</trkpt>
<trkpt lat="32.372219" lon="131.076957">
 <ele>1548.353000</ele>
 <time>2026-05-04T03:35:28Z</time>
</trkpt>
<trkpt lat="32.372089" lon="131.076839">
 <ele>1546.935000</ele>
 <time>2026-05-04T03:35:38Z</time>
</trkpt>
<trkpt lat="32.371959" lon="131.076706">
 <ele>1549.821000</ele>
 <time>2026-05-04T03:35:48Z</time>
</trkpt>
<trkpt lat="32.371876" lon="131.076676">
 <ele>1548.645000</ele>
 <time>2026-05-04T03:35:58Z</time>
</trkpt>
<trkpt lat="32.371769" lon="131.076617">
 <ele>1546.330000</ele>
 <time>2026-05-04T03:36:08Z</time>
</trkpt>
<trkpt lat="32.371627" lon="131.076454">
 <ele>1550.191000</ele>
 <time>2026-05-04T03:36:18Z</time>
</trkpt>
<trkpt lat="32.371426" lon="131.076350">
 <ele>1556.501000</ele>
 <time>2026-05-04T03:36:28Z</time>
</trkpt>
<trkpt lat="32.371237" lon="131.076365">
 <ele>1562.195000</ele>
 <time>2026-05-04T03:36:38Z</time>
</trkpt>
<trkpt lat="32.371047" lon="131.076336">
 <ele>1570.362000</ele>
 <time>2026-05-04T03:36:48Z</time>
</trkpt>
<trkpt lat="32.370739" lon="131.076217">
 <ele>1591.116000</ele>
 <time>2026-05-04T03:36:58Z</time>
</trkpt>
<trkpt lat="32.370656" lon="131.076202">
 <ele>1595.312000</ele>
 <time>2026-05-04T03:37:08Z</time>
</trkpt>
<trkpt lat="32.370538" lon="131.076158">
 <ele>1601.988000</ele>
 <time>2026-05-04T03:37:18Z</time>
</trkpt>
<trkpt lat="32.370360" lon="131.076069">
 <ele>1603.038000</ele>
 <time>2026-05-04T03:37:28Z</time>
</trkpt>
<trkpt lat="32.370159" lon="131.075995">
 <ele>1592.484000</ele>
 <time>2026-05-04T03:37:38Z</time>
</trkpt>
<trkpt lat="32.370029" lon="131.075995">
 <ele>1585.107000</ele>
 <time>2026-05-04T03:37:48Z</time>
</trkpt>
<trkpt lat="32.369934" lon="131.075995">
 <ele>1579.321000</ele>
 <time>2026-05-04T03:37:58Z</time>
</trkpt>
<trkpt lat="32.369828" lon="131.075995">
 <ele>1571.773000</ele>
 <time>2026-05-04T03:38:08Z</time>
</trkpt>
<trkpt lat="32.369686" lon="131.075951">
 <ele>1568.444000</ele>
 <time>2026-05-04T03:38:18Z</time>
</trkpt>
<trkpt lat="32.369461" lon="131.075862">
 <ele>1569.814000</ele>
 <time>2026-05-04T03:38:28Z</time>
</trkpt>
<trkpt lat="32.369342" lon="131.075803">
 <ele>1572.045000</ele>
 <time>2026-05-04T03:38:38Z</time>
</trkpt>
<trkpt lat="32.369165" lon="131.075847">
 <ele>1566.400000</ele>
 <time>2026-05-04T03:38:48Z</time>
</trkpt>
<trkpt lat="32.368987" lon="131.075847">
 <ele>1563.613000</ele>
 <time>2026-05-04T03:38:58Z</time>
</trkpt>
<trkpt lat="32.368881" lon="131.075847">
 <ele>1562.755000</ele>
 <time>2026-05-04T03:39:08Z</time>
</trkpt>
<trkpt lat="32.368762" lon="131.075847">
 <ele>1558.663000</ele>
 <time>2026-05-04T03:39:18Z</time>
</trkpt>
<trkpt lat="32.368644" lon="131.075833">
 <ele>1554.761000</ele>
 <time>2026-05-04T03:39:28Z</time>
</trkpt>
<trkpt lat="32.368549" lon="131.075729">
 <ele>1548.747000</ele>
 <time>2026-05-04T03:39:38Z</time>
</trkpt>
<trkpt lat="32.368395" lon="131.075685">
 <ele>1541.670000</ele>
 <time>2026-05-04T03:39:48Z</time>
</trkpt>
<trkpt lat="32.368265" lon="131.075655">
 <ele>1535.860000</ele>
 <time>2026-05-04T03:39:58Z</time>
</trkpt>
<trkpt lat="32.368170" lon="131.075566">
 <ele>1532.010000</ele>
 <time>2026-05-04T03:40:08Z</time>
</trkpt>
<trkpt lat="32.368052" lon="131.075389">
 <ele>1526.427000</ele>
 <time>2026-05-04T03:40:18Z</time>
</trkpt>
<trkpt lat="32.367969" lon="131.075329">
 <ele>1523.098000</ele>
 <time>2026-05-04T03:40:28Z</time>
</trkpt>
<trkpt lat="32.367839" lon="131.075285">
 <ele>1518.589000</ele>
 <time>2026-05-04T03:40:38Z</time>
</trkpt>
<trkpt lat="32.367744" lon="131.075211">
 <ele>1520.061000</ele>
 <time>2026-05-04T03:40:48Z</time>
</trkpt>
<trkpt lat="32.367685" lon="131.075137">
 <ele>1522.531000</ele>
 <time>2026-05-04T03:40:58Z</time>
</trkpt>
<trkpt lat="32.367590" lon="131.075063">
 <ele>1522.710000</ele>
 <time>2026-05-04T03:41:08Z</time>
</trkpt>
<trkpt lat="32.367448" lon="131.074959">
 <ele>1523.294000</ele>
 <time>2026-05-04T03:41:18Z</time>
</trkpt>
<trkpt lat="32.367342" lon="131.074885">
 <ele>1524.269000</ele>
 <time>2026-05-04T03:41:28Z</time>
</trkpt>
<trkpt lat="32.367247" lon="131.074782">
 <ele>1525.544000</ele>
 <time>2026-05-04T03:41:38Z</time>
</trkpt>
<trkpt lat="32.367140" lon="131.074708">
 <ele>1525.379000</ele>
 <time>2026-05-04T03:41:48Z</time>
</trkpt>
<trkpt lat="32.367034" lon="131.074634">
 <ele>1525.157000</ele>
 <time>2026-05-04T03:41:58Z</time>
</trkpt>
<trkpt lat="32.366939" lon="131.074501">
 <ele>1527.165000</ele>
 <time>2026-05-04T03:42:08Z</time>
</trkpt>
<trkpt lat="32.366797" lon="131.074367">
 <ele>1525.456000</ele>
 <time>2026-05-04T03:42:18Z</time>
</trkpt>
<trkpt lat="32.366608" lon="131.074308">
 <ele>1520.064000</ele>
 <time>2026-05-04T03:42:28Z</time>
</trkpt>
<trkpt lat="32.366489" lon="131.074220">
 <ele>1515.728000</ele>
 <time>2026-05-04T03:42:38Z</time>
</trkpt>
<trkpt lat="32.366300" lon="131.074160">
 <ele>1507.487000</ele>
 <time>2026-05-04T03:42:48Z</time>
</trkpt>
<trkpt lat="32.366229" lon="131.074101">
 <ele>1504.329000</ele>
 <time>2026-05-04T03:42:58Z</time>
</trkpt>
<trkpt lat="32.366016" lon="131.074012">
 <ele>1496.144000</ele>
 <time>2026-05-04T03:43:08Z</time>
</trkpt>
<trkpt lat="32.365862" lon="131.074012">
 <ele>1492.490000</ele>
 <time>2026-05-04T03:43:18Z</time>
</trkpt>
<trkpt lat="32.365684" lon="131.074012">
 <ele>1488.280000</ele>
 <time>2026-05-04T03:43:28Z</time>
</trkpt>
<trkpt lat="32.365554" lon="131.074012">
 <ele>1484.651000</ele>
 <time>2026-05-04T03:43:38Z</time>
</trkpt>
<trkpt lat="32.365353" lon="131.074012">
 <ele>1479.672000</ele>
 <time>2026-05-04T03:43:48Z</time>
</trkpt>
<trkpt lat="32.365151" lon="131.074072">
 <ele>1479.057000</ele>
 <time>2026-05-04T03:43:58Z</time>
</trkpt>
<trkpt lat="32.365009" lon="131.074072">
 <ele>1475.690000</ele>
 <time>2026-05-04T03:44:08Z</time>
</trkpt>
<trkpt lat="32.364784" lon="131.074057">
 <ele>1467.162000</ele>
 <time>2026-05-04T03:44:18Z</time>
</trkpt>
<trkpt lat="32.364702" lon="131.074072">
 <ele>1466.191000</ele>
 <time>2026-05-04T03:44:28Z</time>
</trkpt>
<trkpt lat="32.364559" lon="131.074131">
 <ele>1463.746000</ele>
 <time>2026-05-04T03:44:38Z</time>
</trkpt>
<trkpt lat="32.364204" lon="131.074101">
 <ele>1467.371000</ele>
 <time>2026-05-04T03:44:48Z</time>
</trkpt>
<trkpt lat="32.364121" lon="131.074116">
 <ele>1466.055000</ele>
 <time>2026-05-04T03:44:58Z</time>
</trkpt>
<trkpt lat="32.363920" lon="131.074175">
 <ele>1463.746000</ele>
 <time>2026-05-04T03:45:08Z</time>
</trkpt>
<trkpt lat="32.363754" lon="131.074190">
 <ele>1462.936000</ele>
 <time>2026-05-04T03:45:18Z</time>
</trkpt>
<trkpt lat="32.363624" lon="131.074220">
 <ele>1459.606000</ele>
 <time>2026-05-04T03:45:28Z</time>
</trkpt>
<trkpt lat="32.363447" lon="131.074220">
 <ele>1455.271000</ele>
 <time>2026-05-04T03:45:38Z</time>
</trkpt>
<trkpt lat="32.363293" lon="131.074249">
 <ele>1451.197000</ele>
 <time>2026-05-04T03:45:48Z</time>
</trkpt>
<trkpt lat="32.363103" lon="131.074367">
 <ele>1456.841000</ele>
 <time>2026-05-04T03:45:58Z</time>
</trkpt>
<trkpt lat="32.362902" lon="131.074486">
 <ele>1461.759000</ele>
 <time>2026-05-04T03:46:08Z</time>
</trkpt>
<trkpt lat="32.362630" lon="131.074486">
 <ele>1450.924000</ele>
 <time>2026-05-04T03:46:18Z</time>
</trkpt>
<trkpt lat="32.362500" lon="131.074397">
 <ele>1449.230000</ele>
 <time>2026-05-04T03:46:28Z</time>
</trkpt>
<trkpt lat="32.362239" lon="131.074382">
 <ele>1450.581000</ele>
 <time>2026-05-04T03:46:38Z</time>
</trkpt>
<trkpt lat="32.362133" lon="131.074382">
 <ele>1449.718000</ele>
 <time>2026-05-04T03:46:48Z</time>
</trkpt>
<trkpt lat="32.362014" lon="131.074338">
 <ele>1449.485000</ele>
 <time>2026-05-04T03:46:58Z</time>
</trkpt>
<trkpt lat="32.361837" lon="131.074249">
 <ele>1450.557000</ele>
 <time>2026-05-04T03:47:08Z</time>
</trkpt>
<trkpt lat="32.361777" lon="131.074234">
 <ele>1451.926000</ele>
 <time>2026-05-04T03:47:18Z</time>
</trkpt>
<trkpt lat="32.361671" lon="131.074234">
 <ele>1454.086000</ele>
 <time>2026-05-04T03:47:28Z</time>
</trkpt>
<trkpt lat="32.361529" lon="131.074220">
 <ele>1458.249000</ele>
 <time>2026-05-04T03:47:38Z</time>
</trkpt>
<trkpt lat="32.361363" lon="131.074220">
 <ele>1464.470000</ele>
 <time>2026-05-04T03:47:48Z</time>
</trkpt>
<trkpt lat="32.361197" lon="131.074308">
 <ele>1470.432000</ele>
 <time>2026-05-04T03:47:58Z</time>
</trkpt>
<trkpt lat="32.361114" lon="131.074353">
 <ele>1473.241000</ele>
 <time>2026-05-04T03:48:08Z</time>
</trkpt>
<trkpt lat="32.360972" lon="131.074397">
 <ele>1476.655000</ele>
 <time>2026-05-04T03:48:18Z</time>
</trkpt>
<trkpt lat="32.360889" lon="131.074619">
 <ele>1472.837000</ele>
 <time>2026-05-04T03:48:28Z</time>
</trkpt>
<trkpt lat="32.360854" lon="131.074723">
 <ele>1471.478000</ele>
 <time>2026-05-04T03:48:38Z</time>
</trkpt>
<trkpt lat="32.360795" lon="131.074826">
 <ele>1469.402000</ele>
 <time>2026-05-04T03:48:48Z</time>
</trkpt>
<trkpt lat="32.360700" lon="131.074915">
 <ele>1467.349000</ele>
 <time>2026-05-04T03:48:58Z</time>
</trkpt>
<trkpt lat="32.360629" lon="131.075048">
 <ele>1464.681000</ele>
 <time>2026-05-04T03:49:08Z</time>
</trkpt>
<trkpt lat="32.360582" lon="131.075107">
 <ele>1463.403000</ele>
 <time>2026-05-04T03:49:18Z</time>
</trkpt>
<trkpt lat="32.360499" lon="131.075241">
 <ele>1459.848000</ele>
 <time>2026-05-04T03:49:28Z</time>
</trkpt>
<trkpt lat="32.360392" lon="131.075389">
 <ele>1453.040000</ele>
 <time>2026-05-04T03:49:38Z</time>
</trkpt>
<trkpt lat="32.360274" lon="131.075596">
 <ele>1442.812000</ele>
 <time>2026-05-04T03:49:48Z</time>
</trkpt>
<trkpt lat="32.360203" lon="131.075729">
 <ele>1437.046000</ele>
 <time>2026-05-04T03:49:58Z</time>
</trkpt>
<trkpt lat="32.360155" lon="131.075833">
 <ele>1435.598000</ele>
 <time>2026-05-04T03:50:08Z</time>
</trkpt>
<trkpt lat="32.360132" lon="131.076336">
 <ele>1417.772000</ele>
 <time>2026-05-04T03:50:18Z</time>
</trkpt>
<trkpt lat="32.360108" lon="131.076528">
 <ele>1410.037000</ele>
 <time>2026-05-04T03:50:28Z</time>
</trkpt>
<trkpt lat="32.360061" lon="131.076706">
 <ele>1401.234000</ele>
 <time>2026-05-04T03:50:38Z</time>
</trkpt>
<trkpt lat="32.360037" lon="131.076942">
 <ele>1395.109000</ele>
 <time>2026-05-04T03:50:48Z</time>
</trkpt>
<trkpt lat="32.360013" lon="131.077120">
 <ele>1392.384000</ele>
 <time>2026-05-04T03:50:58Z</time>
</trkpt>
<trkpt lat="32.359990" lon="131.077386">
 <ele>1383.284000</ele>
 <time>2026-05-04T03:51:08Z</time>
</trkpt>
<trkpt lat="32.359990" lon="131.077682">
 <ele>1375.012000</ele>
 <time>2026-05-04T03:51:18Z</time>
</trkpt>
<trkpt lat="32.359990" lon="131.077919">
 <ele>1368.401000</ele>
 <time>2026-05-04T03:51:28Z</time>
</trkpt>
<trkpt lat="32.359966" lon="131.078126">
 <ele>1360.596000</ele>
 <time>2026-05-04T03:51:38Z</time>
</trkpt>
<trkpt lat="32.359764" lon="131.078036">
 <ele>1359.212000</ele>
 <time>2026-05-04T03:51:48Z</time>
</trkpt>
<trkpt lat="32.359497" lon="131.078068">
 <ele>1343.332000</ele>
 <time>2026-05-04T03:51:58Z</time>
</trkpt>
<trkpt lat="32.359421" lon="131.078020">
 <ele>1339.728000</ele>
 <time>2026-05-04T03:52:08Z</time>
</trkpt>
<trkpt lat="32.359319" lon="131.078020">
 <ele>1334.720000</ele>
 <time>2026-05-04T03:52:18Z</time>
</trkpt>
<trkpt lat="32.359218" lon="131.078020">
 <ele>1330.182000</ele>
 <time>2026-05-04T03:52:28Z</time>
</trkpt>
<trkpt lat="32.359065" lon="131.078020">
 <ele>1320.588000</ele>
 <time>2026-05-04T03:52:38Z</time>
</trkpt>
<trkpt lat="32.358913" lon="131.078036">
 <ele>1312.823000</ele>
 <time>2026-05-04T03:52:48Z</time>
</trkpt>
<trkpt lat="32.358785" lon="131.078116">
 <ele>1306.137000</ele>
 <time>2026-05-04T03:52:58Z</time>
</trkpt>
<trkpt lat="32.358684" lon="131.078164">
 <ele>1304.589000</ele>
 <time>2026-05-04T03:53:08Z</time>
</trkpt>
<trkpt lat="32.358506" lon="131.078164">
 <ele>1298.565000</ele>
 <time>2026-05-04T03:53:18Z</time>
</trkpt>
<trkpt lat="32.358366" lon="131.078068">
 <ele>1286.903000</ele>
 <time>2026-05-04T03:53:28Z</time>
</trkpt>
<trkpt lat="32.358200" lon="131.078020">
 <ele>1278.270000</ele>
 <time>2026-05-04T03:53:38Z</time>
</trkpt>
<trkpt lat="32.358035" lon="131.078020">
 <ele>1271.286000</ele>
 <time>2026-05-04T03:53:48Z</time>
</trkpt>
<trkpt lat="32.357883" lon="131.078005">
 <ele>1262.144000</ele>
 <time>2026-05-04T03:53:58Z</time>
</trkpt>
<trkpt lat="32.357768" lon="131.078005">
 <ele>1257.215000</ele>
 <time>2026-05-04T03:54:08Z</time>
</trkpt>
<trkpt lat="32.357552" lon="131.078116">
 <ele>1252.565000</ele>
 <time>2026-05-04T03:54:18Z</time>
</trkpt>
<trkpt lat="32.357476" lon="131.078164">
 <ele>1250.218000</ele>
 <time>2026-05-04T03:54:28Z</time>
</trkpt>
<trkpt lat="32.357323" lon="131.078164">
 <ele>1241.989000</ele>
 <time>2026-05-04T03:54:38Z</time>
</trkpt>
<trkpt lat="32.357107" lon="131.078148">
 <ele>1238.421000</ele>
 <time>2026-05-04T03:54:48Z</time>
</trkpt>
<trkpt lat="32.357005" lon="131.078005">
 <ele>1230.878000</ele>
 <time>2026-05-04T03:54:58Z</time>
</trkpt>
<trkpt lat="32.356865" lon="131.078005">
 <ele>1228.079000</ele>
 <time>2026-05-04T03:55:08Z</time>
</trkpt>
<trkpt lat="32.356725" lon="131.078211">
 <ele>1224.065000</ele>
 <time>2026-05-04T03:55:18Z</time>
</trkpt>
<trkpt lat="32.356598" lon="131.078227">
 <ele>1219.882000</ele>
 <time>2026-05-04T03:55:28Z</time>
</trkpt>
<trkpt lat="32.356458" lon="131.078243">
 <ele>1215.471000</ele>
 <time>2026-05-04T03:55:38Z</time>
</trkpt>
<trkpt lat="32.356306" lon="131.078243">
 <ele>1212.685000</ele>
 <time>2026-05-04T03:55:48Z</time>
</trkpt>
<trkpt lat="32.356217" lon="131.078243">
 <ele>1210.921000</ele>
 <time>2026-05-04T03:55:58Z</time>
</trkpt>
<trkpt lat="32.356013" lon="131.078211">
 <ele>1207.534000</ele>
 <time>2026-05-04T03:56:08Z</time>
</trkpt>
<trkpt lat="32.355924" lon="131.078132">
 <ele>1206.096000</ele>
 <time>2026-05-04T03:56:18Z</time>
</trkpt>
<trkpt lat="32.355823" lon="131.078068">
 <ele>1204.329000</ele>
 <time>2026-05-04T03:56:28Z</time>
</trkpt>
<trkpt lat="32.355594" lon="131.078068">
 <ele>1197.672000</ele>
 <time>2026-05-04T03:56:38Z</time>
</trkpt>
<trkpt lat="32.355454" lon="131.078100">
 <ele>1194.656000</ele>
 <time>2026-05-04T03:56:48Z</time>
</trkpt>
<trkpt lat="32.355289" lon="131.078148">
 <ele>1192.715000</ele>
 <time>2026-05-04T03:56:58Z</time>
</trkpt>
<trkpt lat="32.355123" lon="131.078195">
 <ele>1187.877000</ele>
 <time>2026-05-04T03:57:08Z</time>
</trkpt>
<trkpt lat="32.355009" lon="131.078465">
 <ele>1179.212000</ele>
 <time>2026-05-04T03:57:18Z</time>
</trkpt>
<trkpt lat="32.354907" lon="131.078704">
 <ele>1173.722000</ele>
 <time>2026-05-04T03:57:28Z</time>
</trkpt>
<trkpt lat="32.354767" lon="131.078815">
 <ele>1168.537000</ele>
 <time>2026-05-04T03:57:38Z</time>
</trkpt>
<trkpt lat="32.354742" lon="131.079117">
 <ele>1165.053000</ele>
 <time>2026-05-04T03:57:48Z</time>
</trkpt>
<trkpt lat="32.354640" lon="131.079403">
 <ele>1160.098000</ele>
 <time>2026-05-04T03:57:58Z</time>
</trkpt>
<trkpt lat="32.354551" lon="131.079499">
 <ele>1157.744000</ele>
 <time>2026-05-04T03:58:08Z</time>
</trkpt>
<trkpt lat="32.354500" lon="131.079642">
 <ele>1153.769000</ele>
 <time>2026-05-04T03:58:18Z</time>
</trkpt>
<trkpt lat="32.354475" lon="131.079753">
 <ele>1150.150000</ele>
 <time>2026-05-04T03:58:28Z</time>
</trkpt>
<trkpt lat="32.354475" lon="131.079975">
 <ele>1146.141000</ele>
 <time>2026-05-04T03:58:38Z</time>
</trkpt>
<trkpt lat="32.354475" lon="131.080103">
 <ele>1146.406000</ele>
 <time>2026-05-04T03:58:48Z</time>
</trkpt>
<trkpt lat="32.354475" lon="131.080452">
 <ele>1143.225000</ele>
 <time>2026-05-04T03:58:58Z</time>
</trkpt>
<trkpt lat="32.354449" lon="131.080977">
 <ele>1129.802000</ele>
 <time>2026-05-04T03:59:08Z</time>
</trkpt>
<trkpt lat="32.354437" lon="131.081056">
 <ele>1128.166000</ele>
 <time>2026-05-04T03:59:18Z</time>
</trkpt>
<trkpt lat="32.354398" lon="131.081279">
 <ele>1123.470000</ele>
 <time>2026-05-04T03:59:28Z</time>
</trkpt>
<trkpt lat="32.354386" lon="131.081470">
 <ele>1119.109000</ele>
 <time>2026-05-04T03:59:38Z</time>
</trkpt>
<trkpt lat="32.354322" lon="131.081613">
 <ele>1114.959000</ele>
 <time>2026-05-04T03:59:48Z</time>
</trkpt>
<trkpt lat="32.354220" lon="131.081787">
 <ele>1110.519000</ele>
 <time>2026-05-04T03:59:58Z</time>
</trkpt>
<trkpt lat="32.354081" lon="131.082042">
 <ele>1104.994000</ele>
 <time>2026-05-04T04:00:08Z</time>
</trkpt>
<trkpt lat="32.354017" lon="131.082121">
 <ele>1103.269000</ele>
 <time>2026-05-04T04:00:18Z</time>
</trkpt>
<trkpt lat="32.353941" lon="131.082217">
 <ele>1100.535000</ele>
 <time>2026-05-04T04:00:28Z</time>
</trkpt>
<trkpt lat="32.353648" lon="131.082535">
 <ele>1092.380000</ele>
 <time>2026-05-04T04:00:38Z</time>
</trkpt>
<trkpt lat="32.353521" lon="131.082630">
 <ele>1090.711000</ele>
 <time>2026-05-04T04:00:48Z</time>
</trkpt>
<trkpt lat="32.353508" lon="131.082693">
 <ele>1088.697000</ele>
 <time>2026-05-04T04:00:58Z</time>
</trkpt>
<trkpt lat="32.353419" lon="131.082805">
 <ele>1084.218000</ele>
 <time>2026-05-04T04:01:08Z</time>
</trkpt>
<trkpt lat="32.353318" lon="131.082916">
 <ele>1083.476000</ele>
 <time>2026-05-04T04:01:18Z</time>
</trkpt>
<trkpt lat="32.353267" lon="131.083027">
 <ele>1079.764000</ele>
 <time>2026-05-04T04:01:28Z</time>
</trkpt>
<trkpt lat="32.353216" lon="131.083170">
 <ele>1076.873000</ele>
 <time>2026-05-04T04:01:38Z</time>
</trkpt>
<trkpt lat="32.353127" lon="131.083266">
 <ele>1073.932000</ele>
 <time>2026-05-04T04:01:48Z</time>
</trkpt>
<trkpt lat="32.353000" lon="131.083425">
 <ele>1070.927000</ele>
 <time>2026-05-04T04:01:58Z</time>
</trkpt>
<trkpt lat="32.352923" lon="131.083504">
 <ele>1070.243000</ele>
 <time>2026-05-04T04:02:08Z</time>
</trkpt>
<trkpt lat="32.352847" lon="131.083631">
 <ele>1065.805000</ele>
 <time>2026-05-04T04:02:18Z</time>
</trkpt>
<trkpt lat="32.352771" lon="131.083758">
 <ele>1062.510000</ele>
 <time>2026-05-04T04:02:28Z</time>
</trkpt>
<trkpt lat="32.352720" lon="131.083933">
 <ele>1059.183000</ele>
 <time>2026-05-04T04:02:38Z</time>
</trkpt>
<trkpt lat="32.352644" lon="131.084108">
 <ele>1056.274000</ele>
 <time>2026-05-04T04:02:48Z</time>
</trkpt>
<trkpt lat="32.352580" lon="131.084267">
 <ele>1053.715000</ele>
 <time>2026-05-04T04:02:58Z</time>
</trkpt>
<trkpt lat="32.352542" lon="131.084346">
 <ele>1052.124000</ele>
 <time>2026-05-04T04:03:08Z</time>
</trkpt>
<trkpt lat="32.352428" lon="131.084537">
 <ele>1048.355000</ele>
 <time>2026-05-04T04:03:18Z</time>
</trkpt>
<trkpt lat="32.352389" lon="131.084664">
 <ele>1046.717000</ele>
 <time>2026-05-04T04:03:28Z</time>
</trkpt>
<trkpt lat="32.352339" lon="131.084776">
 <ele>1044.061000</ele>
 <time>2026-05-04T04:03:38Z</time>
</trkpt>
<trkpt lat="32.352211" lon="131.084903">
 <ele>1040.226000</ele>
 <time>2026-05-04T04:03:48Z</time>
</trkpt>
<trkpt lat="32.352122" lon="131.085014">
 <ele>1037.645000</ele>
 <time>2026-05-04T04:03:58Z</time>
</trkpt>
<trkpt lat="32.352046" lon="131.085173">
 <ele>1034.324000</ele>
 <time>2026-05-04T04:04:08Z</time>
</trkpt>
<trkpt lat="32.351970" lon="131.085268">
 <ele>1031.232000</ele>
 <time>2026-05-04T04:04:18Z</time>
</trkpt>
<trkpt lat="32.351792" lon="131.085427">
 <ele>1030.515000</ele>
 <time>2026-05-04T04:04:28Z</time>
</trkpt>
<trkpt lat="32.351741" lon="131.085539">
 <ele>1024.954000</ele>
 <time>2026-05-04T04:04:38Z</time>
</trkpt>
<trkpt lat="32.351665" lon="131.085745">
 <ele>1020.675000</ele>
 <time>2026-05-04T04:04:48Z</time>
</trkpt>
<trkpt lat="32.351601" lon="131.085825">
 <ele>1020.364000</ele>
 <time>2026-05-04T04:04:58Z</time>
</trkpt>
<trkpt lat="32.351550" lon="131.085952">
 <ele>1018.720000</ele>
 <time>2026-05-04T04:05:08Z</time>
</trkpt>
<trkpt lat="32.351461" lon="131.086095">
 <ele>1015.021000</ele>
 <time>2026-05-04T04:05:18Z</time>
</trkpt>
<trkpt lat="32.351372" lon="131.086174">
 <ele>1013.803000</ele>
 <time>2026-05-04T04:05:28Z</time>
</trkpt>
<trkpt lat="32.351283" lon="131.086270">
 <ele>1014.305000</ele>
 <time>2026-05-04T04:05:38Z</time>
</trkpt>
<trkpt lat="32.351143" lon="131.086476">
 <ele>1014.782000</ele>
 <time>2026-05-04T04:05:48Z</time>
</trkpt>
<trkpt lat="32.351105" lon="131.086508">
 <ele>1014.514000</ele>
 <time>2026-05-04T04:05:58Z</time>
</trkpt>
<trkpt lat="32.350965" lon="131.086699">
 <ele>1013.051000</ele>
 <time>2026-05-04T04:06:08Z</time>
</trkpt>
<trkpt lat="32.350864" lon="131.086921">
 <ele>1010.979000</ele>
 <time>2026-05-04T04:06:18Z</time>
</trkpt>
<trkpt lat="32.350825" lon="131.087017">
 <ele>1010.284000</ele>
 <time>2026-05-04T04:06:28Z</time>
</trkpt>
<trkpt lat="32.350736" lon="131.087335">
 <ele>1005.652000</ele>
 <time>2026-05-04T04:06:38Z</time>
</trkpt>
<trkpt lat="32.350647" lon="131.087446">
 <ele>1006.892000</ele>
 <time>2026-05-04T04:06:48Z</time>
</trkpt>
<trkpt lat="32.350533" lon="131.087621">
 <ele>1005.502000</ele>
 <time>2026-05-04T04:06:58Z</time>
</trkpt>
<trkpt lat="32.350495" lon="131.087780">
 <ele>1004.001000</ele>
 <time>2026-05-04T04:07:08Z</time>
</trkpt>
<trkpt lat="32.350406" lon="131.087875">
 <ele>1003.213000</ele>
 <time>2026-05-04T04:07:18Z</time>
</trkpt>
<trkpt lat="32.350279" lon="131.087875">
 <ele>1001.491000</ele>
 <time>2026-05-04T04:07:28Z</time>
</trkpt>
<trkpt lat="32.350228" lon="131.087764">
 <ele>999.898000</ele>
 <time>2026-05-04T04:07:38Z</time>
</trkpt>
<trkpt lat="32.350304" lon="131.087430">
 <ele>997.592000</ele>
 <time>2026-05-04T04:07:48Z</time>
</trkpt>
<trkpt lat="32.350342" lon="131.087223">
 <ele>996.463000</ele>
 <time>2026-05-04T04:07:58Z</time>
</trkpt>
<trkpt lat="32.350329" lon="131.087160">
 <ele>995.921000</ele>
 <time>2026-05-04T04:08:08Z</time>
</trkpt>
<trkpt lat="32.350240" lon="131.087017">
 <ele>994.128000</ele>
 <time>2026-05-04T04:08:18Z</time>
</trkpt>
<trkpt lat="32.350139" lon="131.086937">
 <ele>993.281000</ele>
 <time>2026-05-04T04:08:28Z</time>
</trkpt>
<trkpt lat="32.350024" lon="131.086921">
 <ele>992.322000</ele>
 <time>2026-05-04T04:08:38Z</time>
</trkpt>
<trkpt lat="32.349872" lon="131.086921">
 <ele>990.743000</ele>
 <time>2026-05-04T04:08:48Z</time>
</trkpt>
<trkpt lat="32.349757" lon="131.086985">
 <ele>989.341000</ele>
 <time>2026-05-04T04:08:58Z</time>
</trkpt>
<trkpt lat="32.349681" lon="131.087080">
 <ele>988.891000</ele>
 <time>2026-05-04T04:09:08Z</time>
</trkpt>
<trkpt lat="32.349554" lon="131.087192">
 <ele>988.652000</ele>
 <time>2026-05-04T04:09:18Z</time>
</trkpt>
<trkpt lat="32.349427" lon="131.087223">
 <ele>988.442000</ele>
 <time>2026-05-04T04:09:28Z</time>
</trkpt>
<trkpt lat="32.349452" lon="131.087239">
 <ele>987.665000</ele>
 <time>2026-05-04T04:09:38Z</time>
</trkpt>
<trkpt lat="32.349299" lon="131.087176">
 <ele>988.504000</ele>
 <time>2026-05-04T04:09:48Z</time>
</trkpt>
<trkpt lat="32.349172" lon="131.087208">
 <ele>985.991000</ele>
 <time>2026-05-04T04:09:58Z</time>
</trkpt>
<trkpt lat="32.348994" lon="131.087176">
 <ele>982.572000</ele>
 <time>2026-05-04T04:10:08Z</time>
</trkpt>
<trkpt lat="32.348931" lon="131.087080">
 <ele>984.421000</ele>
 <time>2026-05-04T04:10:18Z</time>
</trkpt>
<trkpt lat="32.348765" lon="131.087049">
 <ele>981.655000</ele>
 <time>2026-05-04T04:10:28Z</time>
</trkpt>
<trkpt lat="32.348651" lon="131.087017">
 <ele>979.725000</ele>
 <time>2026-05-04T04:10:38Z</time>
</trkpt>
<trkpt lat="32.348562" lon="131.086985">
 <ele>978.616000</ele>
 <time>2026-05-04T04:10:48Z</time>
</trkpt>
<trkpt lat="32.348511" lon="131.087017">
 <ele>976.123000</ele>
 <time>2026-05-04T04:10:58Z</time>
</trkpt>
<trkpt lat="32.348511" lon="131.087287">
 <ele>969.115000</ele>
 <time>2026-05-04T04:11:08Z</time>
</trkpt>
<trkpt lat="32.348359" lon="131.087478">
 <ele>961.370000</ele>
 <time>2026-05-04T04:11:18Z</time>
</trkpt>
<trkpt lat="32.348270" lon="131.087525">
 <ele>961.970000</ele>
 <time>2026-05-04T04:11:28Z</time>
</trkpt>
<trkpt lat="32.348206" lon="131.087637">
 <ele>962.022000</ele>
 <time>2026-05-04T04:11:38Z</time>
</trkpt>
<trkpt lat="32.348206" lon="131.087780">
 <ele>960.120000</ele>
 <time>2026-05-04T04:11:48Z</time>
</trkpt>
<trkpt lat="32.348206" lon="131.087891">
 <ele>958.197000</ele>
 <time>2026-05-04T04:11:58Z</time>
</trkpt>
<trkpt lat="32.348091" lon="131.088002">
 <ele>955.747000</ele>
 <time>2026-05-04T04:12:08Z</time>
</trkpt>
<trkpt lat="32.348028" lon="131.088018">
 <ele>955.650000</ele>
 <time>2026-05-04T04:12:18Z</time>
</trkpt>
<trkpt lat="32.347913" lon="131.088098">
 <ele>953.981000</ele>
 <time>2026-05-04T04:12:28Z</time>
</trkpt>
<trkpt lat="32.347786" lon="131.088114">
 <ele>951.917000</ele>
 <time>2026-05-04T04:12:38Z</time>
</trkpt>
<trkpt lat="32.347697" lon="131.088114">
 <ele>950.690000</ele>
 <time>2026-05-04T04:12:48Z</time>
</trkpt>
<trkpt lat="32.347659" lon="131.088034">
 <ele>950.832000</ele>
 <time>2026-05-04T04:12:58Z</time>
</trkpt>
<trkpt lat="32.347570" lon="131.088002">
 <ele>949.494000</ele>
 <time>2026-05-04T04:13:08Z</time>
</trkpt>
<trkpt lat="32.347532" lon="131.087955">
 <ele>949.215000</ele>
 <time>2026-05-04T04:13:18Z</time>
</trkpt>
<trkpt lat="32.347519" lon="131.087891">
 <ele>949.684000</ele>
 <time>2026-05-04T04:13:28Z</time>
</trkpt>
<trkpt lat="32.347443" lon="131.087843">
 <ele>949.721000</ele>
 <time>2026-05-04T04:13:38Z</time>
</trkpt>
<trkpt lat="32.347329" lon="131.087827">
 <ele>949.584000</ele>
 <time>2026-05-04T04:13:48Z</time>
</trkpt>
<trkpt lat="32.347214" lon="131.087827">
 <ele>949.649000</ele>
 <time>2026-05-04T04:13:58Z</time>
</trkpt>
<trkpt lat="32.347100" lon="131.087875">
 <ele>949.342000</ele>
 <time>2026-05-04T04:14:08Z</time>
</trkpt>
<trkpt lat="32.346998" lon="131.087923">
 <ele>949.243000</ele>
 <time>2026-05-04T04:14:18Z</time>
</trkpt>
<trkpt lat="32.346845" lon="131.087939">
 <ele>950.153000</ele>
 <time>2026-05-04T04:14:28Z</time>
</trkpt>
<trkpt lat="32.346693" lon="131.087970">
 <ele>952.345000</ele>
 <time>2026-05-04T04:14:38Z</time>
</trkpt>
<trkpt lat="32.346540" lon="131.088050">
 <ele>951.728000</ele>
 <time>2026-05-04T04:14:48Z</time>
</trkpt>
<trkpt lat="32.346489" lon="131.088082">
 <ele>950.491000</ele>
 <time>2026-05-04T04:14:58Z</time>
</trkpt>
<trkpt lat="32.346324" lon="131.088225">
 <ele>950.371000</ele>
 <time>2026-05-04T04:15:08Z</time>
</trkpt>
<trkpt lat="32.346273" lon="131.088209">
 <ele>950.331000</ele>
 <time>2026-05-04T04:15:18Z</time>
</trkpt>
<trkpt lat="32.346222" lon="131.088225">
 <ele>950.704000</ele>
 <time>2026-05-04T04:15:28Z</time>
</trkpt>
<trkpt lat="32.346184" lon="131.088384">
 <ele>949.609000</ele>
 <time>2026-05-04T04:15:38Z</time>
</trkpt>
<trkpt lat="32.346159" lon="131.088606">
 <ele>946.800000</ele>
 <time>2026-05-04T04:15:48Z</time>
</trkpt>
<trkpt lat="32.346171" lon="131.088686">
 <ele>945.154000</ele>
 <time>2026-05-04T04:15:58Z</time>
</trkpt>
<trkpt lat="32.346273" lon="131.088765">
 <ele>944.822000</ele>
 <time>2026-05-04T04:16:08Z</time>
</trkpt>
<trkpt lat="32.346311" lon="131.088845">
 <ele>943.655000</ele>
 <time>2026-05-04T04:16:18Z</time>
</trkpt>
<trkpt lat="32.346413" lon="131.088908">
 <ele>942.396000</ele>
 <time>2026-05-04T04:16:28Z</time>
</trkpt>
<trkpt lat="32.346540" lon="131.088924">
 <ele>940.862000</ele>
 <time>2026-05-04T04:16:38Z</time>
</trkpt>
<trkpt lat="32.346616" lon="131.088908">
 <ele>939.975000</ele>
 <time>2026-05-04T04:16:48Z</time>
</trkpt>
<trkpt lat="32.346705" lon="131.088829">
 <ele>940.129000</ele>
 <time>2026-05-04T04:16:58Z</time>
</trkpt>
<trkpt lat="32.346756" lon="131.088749">
 <ele>940.234000</ele>
 <time>2026-05-04T04:17:08Z</time>
</trkpt>
<trkpt lat="32.346871" lon="131.088670">
 <ele>941.094000</ele>
 <time>2026-05-04T04:17:18Z</time>
</trkpt>
<trkpt lat="32.346960" lon="131.088702">
 <ele>941.426000</ele>
 <time>2026-05-04T04:17:28Z</time>
</trkpt>
<trkpt lat="32.347062" lon="131.088765">
 <ele>941.869000</ele>
 <time>2026-05-04T04:17:38Z</time>
</trkpt>
<trkpt lat="32.347100" lon="131.088797">
 <ele>942.042000</ele>
 <time>2026-05-04T04:17:48Z</time>
</trkpt>
</trkseg>
</trk>
</gpx>
